M I D A S
Marine Information and Data Acquisition System
Tripno 2289 of the Zeeleeuw from 2012-04-12 07:18:30 to 2012-04-12 14:09:51
Back to CruiseResearch ActivitiesStationsMapUnderway DataData graphs

EquipmentUnitsComment
TimeDGPSUTC
LatitudeDGPSDM.mWGS84
LongitudeDGPSDM.mWGS84
TemperatureSBE03/SBE38deg celciusITS90
ConductivitySBE21S/mITS90
SalinitySBE21 Practical Salinity Units
ChlorophylAChelsea fluorimeterg/lCalibrated in Aceton
Missing or incorrect values are displayed as -999
Sea surface data collected by the RV Zeeleeuw from 2012-04-12 06:46:42 to 2012-04-12 14:20:17
                                                                                    Next 1000 lines
Time Latitude Longitude Temperature Conductivity Salinity ChlorophylA
2012-04-12 06:46:53 51°13.638 2°56.02 16.3742 4.518536 31.560643 -2.458615
2012-04-12 06:46:58 51°13.638 2°56.02 16.3705 4.518536 31.560643 -2.458615
2012-04-12 06:47:03 51°13.638 2°56.02 16.3716 4.518536 31.560643 -2.458615
2012-04-12 06:47:08 51°13.638 2°56.02 16.3689 4.518536 31.560643 -2.458615
2012-04-12 06:47:13 51°13.638 2°56.02 16.3693 4.518433 31.559832 -2.458615
2012-04-12 06:47:18 51°13.638 2°56.02 16.3686 4.518536 31.560643 -2.458615
2012-04-12 06:47:22 51°13.637 2°56.02 16.3686 4.518536 31.560643 -2.458615
2012-04-12 06:47:28 51°13.637 2°56.02 16.3672 4.518536 31.560643 -2.458615
2012-04-12 06:47:33 51°13.637 2°56.02 16.3669 4.518433 31.559832 -2.458615
2012-04-12 06:47:37 51°13.637 2°56.021 16.3669 4.518433 31.559832 -2.458615
2012-04-12 06:47:42 51°13.637 2°56.021 16.3673 4.518433 31.559832 -2.458615
2012-04-12 06:47:47 51°13.637 2°56.021 16.367 4.518433 31.559832 -2.458615
2012-04-12 06:47:52 51°13.637 2°56.022 16.3674 4.518433 31.559832 -2.458615
2012-04-12 06:47:57 51°13.637 2°56.022 16.3717 4.518433 31.559832 -2.458615
2012-04-12 06:48:02 51°13.637 2°56.021 16.3738 4.518433 31.559832 -2.458615
2012-04-12 06:48:08 51°13.637 2°56.022 16.3735 4.518433 31.559832 -2.458615
2012-04-12 06:48:13 51°13.637 2°56.022 16.3743 4.518433 31.559832 -2.458615
2012-04-12 06:48:18 51°13.637 2°56.022 16.3768 4.518433 31.559832 -2.458615
2012-04-12 06:48:23 51°13.636 2°56.022 16.3799 4.518433 31.559832 -2.458615
2012-04-12 06:48:28 51°13.636 2°56.023 16.3823 4.518433 31.559832 -2.458615
2012-04-12 06:48:32 51°13.637 2°56.022 16.3849 4.518433 31.559832 -2.458615
2012-04-12 06:48:37 51°13.637 2°56.022 16.3834 4.518433 31.560387 -2.458615
2012-04-12 06:48:42 51°13.636 2°56.023 16.3821 4.518433 31.560387 -2.458615
2012-04-12 06:48:47 51°13.637 2°56.023 16.3837 4.518433 31.559832 -2.458615
2012-04-12 06:48:52 51°13.636 2°56.023 16.3829 4.518329 31.559022 -2.458615
2012-04-12 06:48:58 51°13.637 2°56.023 16.3822 4.518329 31.559022 -2.458615
2012-04-12 06:49:03 51°13.636 2°56.023 16.38 4.518433 31.559832 -2.458615
2012-04-12 06:49:08 51°13.636 2°56.023 16.3761 4.518433 31.559832 -2.458615
2012-04-12 06:49:12 51°13.636 2°56.023 16.3745 4.518329 31.559022 -2.458615
2012-04-12 06:49:17 51°13.637 2°56.023 16.3757 4.518329 31.559022 -2.458615
2012-04-12 06:49:22 51°13.636 2°56.023 16.3777 4.518329 31.559022 -2.458615
2012-04-12 06:49:27 51°13.637 2°56.023 16.3745 4.518329 31.559022 -2.458615
2012-04-12 06:49:32 51°13.637 2°56.023 16.3767 4.518329 31.559022 -2.458615
2012-04-12 06:49:37 51°13.636 2°56.023 16.3795 4.518329 31.559022 -2.458615
2012-04-12 06:49:42 51°13.636 2°56.023 16.3807 4.518329 31.558468 -2.458615
2012-04-12 06:49:47 51°13.636 2°56.023 16.3831 4.518329 31.559022 -2.458615
2012-04-12 06:49:52 51°13.636 2°56.023 16.3865 4.518329 31.559022 -2.458615
2012-04-12 06:49:57 51°13.636 2°56.023 16.3869 4.518329 31.559022 -2.458615
2012-04-12 06:50:03 51°13.636 2°56.023 16.3864 4.518329 31.559022 -2.458615
2012-04-12 06:50:08 51°13.636 2°56.023 16.3867 4.518329 31.559022 -2.458615
2012-04-12 06:50:13 51°13.635 2°56.023 16.3878 4.518329 31.559577 -2.458615
2012-04-12 06:50:18 51°13.635 2°56.022 16.3873 4.518329 31.559577 -2.458615
2012-04-12 06:50:23 51°13.635 2°56.022 16.3885 4.518329 31.559577 -2.458615
2012-04-12 06:50:28 51°13.635 2°56.022 16.3885 4.518329 31.559577 -2.458615
2012-04-12 06:50:33 51°13.635 2°56.022 16.3899 4.518329 31.559022 -2.458615
2012-04-12 06:50:37 51°13.635 2°56.022 16.3926 4.518329 31.559577 -2.458615
2012-04-12 06:50:42 51°13.635 2°56.023 16.395 4.518329 31.559577 -2.458615
2012-04-12 06:50:47 51°13.636 2°56.022 16.3969 4.518225 31.558767 -2.458615
2012-04-12 06:50:53 51°13.636 2°56.022 16.3956 4.518225 31.558767 -2.458615
2012-04-12 06:50:57 51°13.636 2°56.022 16.3948 4.518225 31.558767 -2.458615
2012-04-12 06:51:02 51°13.636 2°56.022 16.3936 4.518225 31.558767 -2.458615
2012-04-12 06:51:07 51°13.636 2°56.022 16.3947 4.518225 31.558767 -2.458615
2012-04-12 06:51:13 51°13.635 2°56.021 16.3946 4.518225 31.558767 -2.458615
2012-04-12 06:51:17 51°13.635 2°56.021 16.3943 4.518225 31.558767 -2.458615
2012-04-12 06:51:22 51°13.635 2°56.021 16.3953 4.518225 31.558767 -2.458615
2012-04-12 06:51:27 51°13.635 2°56.021 16.3949 4.518225 31.558767 -2.458615
2012-04-12 06:51:32 51°13.635 2°56.021 16.3939 4.518225 31.558767 -2.458615
2012-04-12 06:51:37 51°13.635 2°56.021 16.3939 4.518225 31.558767 -2.458615
2012-04-12 06:51:42 51°13.635 2°56.021 16.3937 4.518225 31.559321 -2.458615
2012-04-12 06:51:47 51°13.635 2°56.021 16.3929 4.518225 31.558767 -2.458615
2012-04-12 06:51:53 51°13.635 2°56.021 16.393 4.518225 31.558767 -2.458615
2012-04-12 06:51:58 51°13.635 2°56.021 16.391 4.518225 31.558767 -2.458615
2012-04-12 06:52:02 51°13.635 2°56.021 16.39 4.518225 31.558767 -2.458615
2012-04-12 06:52:08 51°13.635 2°56.021 16.391 4.518225 31.558767 -2.458615
2012-04-12 06:52:13 51°13.635 2°56.021 16.3936 4.518225 31.559321 -2.458615
2012-04-12 06:52:18 51°13.635 2°56.021 16.394 4.518225 31.558767 -2.458615
2012-04-12 06:52:22 51°13.635 2°56.021 16.3935 4.518225 31.559321 -2.458615
2012-04-12 06:52:28 51°13.635 2°56.021 16.3947 4.518225 31.559321 -2.458615
2012-04-12 06:52:33 51°13.635 2°56.02 16.393 4.518121 31.558511 -2.458615
2012-04-12 06:52:38 51°13.635 2°56.021 16.3931 4.518121 31.557957 -2.458615
2012-04-12 06:52:42 51°13.635 2°56.021 16.3928 4.518121 31.558511 -2.458615
2012-04-12 06:52:48 51°13.636 2°56.021 16.394 4.518121 31.557957 -2.458615
2012-04-12 06:52:53 51°13.636 2°56.021 16.394 4.518121 31.558511 -2.458615
2012-04-12 06:52:58 51°13.636 2°56.021 16.3941 4.518121 31.558511 -2.458615
2012-04-12 06:53:02 51°13.635 2°56.021 16.3949 4.518121 31.558511 -2.458615
2012-04-12 06:53:07 51°13.635 2°56.021 16.3961 4.518121 31.558511 -2.458615
2012-04-12 06:53:13 51°13.636 2°56.021 16.3957 4.518121 31.558511 -2.458615
2012-04-12 06:53:18 51°13.635 2°56.021 16.3965 4.518121 31.559066 -2.458615
2012-04-12 06:53:22 51°13.635 2°56.021 16.3984 4.518121 31.559066 -2.458615
2012-04-12 06:53:27 51°13.635 2°56.021 16.397 4.518121 31.559066 -2.458615
2012-04-12 06:53:32 51°13.635 2°56.021 16.3964 4.518121 31.559066 -2.458615
2012-04-12 06:53:37 51°13.635 2°56.021 16.3962 4.518121 31.559066 -2.458615
2012-04-12 06:53:42 51°13.635 2°56.021 16.3984 4.518121 31.559066 -2.458615
2012-04-12 06:53:47 51°13.635 2°56.021 16.3992 4.518121 31.559066 -2.458615
2012-04-12 06:53:52 51°13.636 2°56.021 16.3994 4.518121 31.559066 -2.458615
2012-04-12 06:53:58 51°13.635 2°56.021 16.3986 4.518121 31.558511 -2.458615
2012-04-12 06:54:03 51°13.635 2°56.021 16.397 4.518121 31.558511 -2.458615
2012-04-12 06:54:07 51°13.635 2°56.021 16.3956 4.518018 31.558256 -2.458615
2012-04-12 06:54:12 51°13.635 2°56.021 16.3952 4.518018 31.558256 -2.458615
2012-04-12 06:54:18 51°13.635 2°56.02 16.3936 4.518121 31.559066 -2.458615
2012-04-12 06:54:23 51°13.635 2°56.02 16.3923 4.518018 31.55881 -2.458615
2012-04-12 06:54:27 51°13.635 2°56.02 16.3928 4.518018 31.55881 -2.458615
2012-04-12 06:54:32 51°13.636 2°56.02 16.3939 4.518018 31.55881 -2.458615
2012-04-12 06:54:37 51°13.635 2°56.02 16.3944 4.518018 31.55881 -2.458615
2012-04-12 06:54:43 51°13.635 2°56.021 16.3925 4.518018 31.55881 -2.458615
2012-04-12 06:54:47 51°13.635 2°56.021 16.394 4.518018 31.55881 -2.458615
2012-04-12 06:54:52 51°13.635 2°56.021 16.3936 4.518018 31.55881 -2.458615
2012-04-12 06:54:58 51°13.635 2°56.021 16.3923 4.518018 31.55881 -2.458615
2012-04-12 06:55:03 51°13.636 2°56.02 16.3916 4.518018 31.55881 -2.458615
2012-04-12 06:55:07 51°13.636 2°56.02 16.3901 4.518018 31.55881 -2.458615
2012-04-12 06:55:13 51°13.636 2°56.021 16.3892 4.518018 31.55881 -2.458615
2012-04-12 06:55:18 51°13.636 2°56.021 16.3897 4.518018 31.55881 -2.458615
2012-04-12 06:55:22 51°13.636 2°56.021 16.3904 4.518018 31.55881 -2.458615
2012-04-12 06:55:27 51°13.636 2°56.021 16.3911 4.517914 31.558555 -2.458615
2012-04-12 06:55:32 51°13.636 2°56.021 16.3924 4.517914 31.558555 -2.458615
2012-04-12 06:55:38 51°13.636 2°56.021 16.3932 4.518018 31.55881 -2.458615
2012-04-12 06:55:42 51°13.636 2°56.021 16.395 4.517914 31.558555 -2.458615
2012-04-12 06:55:47 51°13.636 2°56.021 16.3938 4.517914 31.558555 -2.458615
2012-04-12 06:55:52 51°13.636 2°56.021 16.3931 4.517914 31.558555 -2.458615
2012-04-12 06:55:58 51°13.636 2°56.021 16.3949 4.517914 31.558555 -2.458615
2012-04-12 06:56:03 51°13.636 2°56.021 16.3957 4.517914 31.558555 -2.458615
2012-04-12 06:56:07 51°13.636 2°56.021 16.3965 4.517914 31.558555 -2.458615
2012-04-12 06:56:12 51°13.635 2°56.021 16.399 4.517914 31.559109 -2.458615
2012-04-12 06:56:17 51°13.635 2°56.021 16.4004 4.517914 31.558555 -2.458615
2012-04-12 06:56:22 51°13.636 2°56.021 16.4002 4.517914 31.559109 -2.458615
2012-04-12 06:56:27 51°13.636 2°56.021 16.4011 4.51781 31.557745 -2.458615
2012-04-12 06:56:32 51°13.636 2°56.021 16.4023 4.51781 31.557745 -2.458615
2012-04-12 06:56:38 51°13.636 2°56.021 16.4015 4.51781 31.558299 -2.458615
2012-04-12 06:56:42 51°13.636 2°56.02 16.4019 4.51781 31.558299 -2.458615
2012-04-12 06:56:48 51°13.636 2°56.02 16.4017 4.51781 31.558299 -2.458615
2012-04-12 06:56:52 51°13.636 2°56.02 16.402 4.51781 31.558854 -2.458615
2012-04-12 06:56:57 51°13.637 2°56.02 16.4041 4.51781 31.558854 -2.458615
2012-04-12 06:57:02 51°13.636 2°56.021 16.4053 4.51781 31.558299 -2.458615
2012-04-12 06:57:07 51°13.636 2°56.021 16.405 4.51781 31.558299 -2.458615
2012-04-12 06:57:12 51°13.636 2°56.021 16.4049 4.51781 31.558299 -2.458615
2012-04-12 06:57:17 51°13.635 2°56.021 16.4062 4.51781 31.558299 -2.458615
2012-04-12 06:57:22 51°13.636 2°56.021 16.4059 4.51781 31.558854 -2.458615
2012-04-12 06:57:27 51°13.636 2°56.021 16.4084 4.51781 31.558854 -2.458615
2012-04-12 06:57:33 51°13.635 2°56.022 16.4082 4.51781 31.558854 -2.458615
2012-04-12 06:57:37 51°13.635 2°56.022 16.4101 4.51781 31.558854 -2.458615
2012-04-12 06:57:42 51°13.635 2°56.022 16.4103 4.517706 31.558598 -2.458615
2012-04-12 06:57:47 51°13.635 2°56.022 16.4104 4.517706 31.558598 -2.458615
2012-04-12 06:57:53 51°13.636 2°56.022 16.4077 4.517706 31.558044 -2.458615
2012-04-12 06:57:58 51°13.636 2°56.021 16.4074 4.517706 31.558598 -2.458615
2012-04-12 06:58:02 51°13.636 2°56.021 16.4071 4.517706 31.558598 -2.458615
2012-04-12 06:58:08 51°13.636 2°56.021 16.4071 4.517706 31.558044 -2.458615
2012-04-12 06:58:13 51°13.636 2°56.021 16.4059 4.517706 31.558598 -2.458615
2012-04-12 06:58:18 51°13.636 2°56.021 16.4078 4.517603 31.557234 -2.458615
2012-04-12 06:58:22 51°13.636 2°56.021 16.4101 4.517603 31.557788 -2.458615
2012-04-12 06:58:27 51°13.636 2°56.021 16.4118 4.517603 31.557788 -2.458615
2012-04-12 06:58:32 51°13.636 2°56.021 16.4124 4.517603 31.557788 -2.458615
2012-04-12 06:58:38 51°13.636 2°56.021 16.4183 4.517603 31.557788 -2.458615
2012-04-12 06:58:42 51°13.636 2°56.021 16.4136 4.517603 31.558343 -2.458615
2012-04-12 06:58:47 51°13.636 2°56.021 16.4005 4.517603 31.557788 -2.458615
2012-04-12 06:58:52 51°13.636 2°56.021 16.4037 4.517499 31.556978 -2.458615
2012-04-12 06:58:57 51°13.636 2°56.021 16.3973 4.517499 31.556978 -2.458615
2012-04-12 06:59:03 51°13.636 2°56.02 16.3969 4.517706 31.559153 -2.458615
2012-04-12 06:59:06 51°13.636 2°56.02 16.4084 4.517499 31.557533 -2.458615
2012-04-12 06:59:12 51°13.636 2°56.02 16.4081 4.517499 31.557533 -2.458615
2012-04-12 06:59:18 51°13.636 2°56.02 16.407 4.517499 31.557533 -2.458615
2012-04-12 06:59:22 51°13.636 2°56.02 16.411 4.517603 31.558343 -2.458615
2012-04-12 06:59:27 51°13.636 2°56.02 16.4094 4.517499 31.557533 -2.458615
2012-04-12 06:59:32 51°13.637 2°56.02 16.4116 4.517499 31.557533 -2.458615
2012-04-12 06:59:37 51°13.636 2°56.02 16.4091 4.517499 31.557533 -2.458615
2012-04-12 06:59:42 51°13.636 2°56.02 16.4114 4.517499 31.558087 -2.458615
2012-04-12 06:59:47 51°13.636 2°56.02 16.411 4.517499 31.558087 -2.458615
2012-04-12 06:59:52 51°13.636 2°56.02 16.4113 4.517499 31.558087 -2.458615
2012-04-12 06:59:57 51°13.637 2°56.02 16.4114 4.517499 31.558087 -2.458615
2012-04-12 07:00:03 51°13.636 2°56.02 16.411 4.517499 31.558087 -2.458615
2012-04-12 07:00:08 51°13.636 2°56.02 16.412 4.517395 31.557277 -2.458615
2012-04-12 07:00:12 51°13.636 2°56.02 16.4121 4.517395 31.557277 -2.458615
2012-04-12 07:00:18 51°13.636 2°56.02 16.4135 4.517395 31.557277 -2.458615
2012-04-12 07:00:23 51°13.636 2°56.02 16.4127 4.517395 31.557277 -2.458615
2012-04-12 07:00:28 51°13.636 2°56.02 16.4144 4.517395 31.557277 -2.458615
2012-04-12 07:00:32 51°13.636 2°56.02 16.4143 4.517395 31.557277 -2.458615
2012-04-12 07:00:38 51°13.636 2°56.02 16.4158 4.517395 31.557832 -2.458615
2012-04-12 07:00:43 51°13.636 2°56.02 16.4162 4.517395 31.557277 -2.458615
2012-04-12 07:00:47 51°13.636 2°56.02 16.4183 4.517292 31.557022 -2.458615
2012-04-12 07:00:52 51°13.636 2°56.02 16.4184 4.517292 31.557022 -2.458615
2012-04-12 07:00:57 51°13.636 2°56.02 16.4194 4.517292 31.557022 -2.458615
2012-04-12 07:01:03 51°13.636 2°56.019 16.4188 4.517292 31.557022 -2.458615
2012-04-12 07:01:07 51°13.636 2°56.02 16.4193 4.517292 31.557022 -2.458615
2012-04-12 07:01:12 51°13.636 2°56.02 16.4188 4.517292 31.557022 -2.458615
2012-04-12 07:01:17 51°13.636 2°56.02 16.4197 4.517292 31.557022 -2.458615
2012-04-12 07:01:22 51°13.636 2°56.02 16.4188 4.517292 31.557022 -2.458615
2012-04-12 07:01:28 51°13.636 2°56.02 16.4192 4.517292 31.557022 -2.458615
2012-04-12 07:01:33 51°13.636 2°56.02 16.4183 4.517188 31.556766 -2.458615
2012-04-12 07:01:37 51°13.636 2°56.02 16.4189 4.517292 31.557576 -2.458615
2012-04-12 07:01:42 51°13.636 2°56.02 16.4193 4.517292 31.557576 -2.458615
2012-04-12 07:01:47 51°13.636 2°56.02 16.4193 4.517292 31.557576 -2.458615
2012-04-12 07:01:52 51°13.636 2°56.02 16.4167 4.517188 31.556766 -2.458615
2012-04-12 07:01:57 51°13.636 2°56.02 16.4167 4.517188 31.556766 -2.458615
2012-04-12 07:02:02 51°13.635 2°56.02 16.4164 4.517188 31.556766 -2.458615
2012-04-12 07:02:07 51°13.635 2°56.02 16.4159 4.517188 31.557321 -2.458615
2012-04-12 07:02:12 51°13.636 2°56.02 16.4163 4.517188 31.556766 -2.458615
2012-04-12 07:02:18 51°13.636 2°56.02 16.4162 4.517188 31.557321 -2.458615
2012-04-12 07:02:23 51°13.636 2°56.02 16.4165 4.517188 31.557321 -2.458615
2012-04-12 07:02:27 51°13.636 2°56.02 16.417 4.517188 31.557321 -2.458615
2012-04-12 07:02:32 51°13.636 2°56.02 16.4187 4.517084 31.556511 -2.458615
2012-04-12 07:02:38 51°13.635 2°56.02 16.4193 4.517084 31.557065 -2.458615
2012-04-12 07:02:42 51°13.636 2°56.02 16.4187 4.517084 31.556511 -2.458615
2012-04-12 07:02:47 51°13.636 2°56.02 16.4199 4.517084 31.557065 -2.458615
2012-04-12 07:02:52 51°13.636 2°56.02 16.4213 4.517084 31.557065 -2.458615
2012-04-12 07:02:58 51°13.635 2°56.021 16.4218 4.517084 31.55762 -2.458615
2012-04-12 07:03:03 51°13.635 2°56.021 16.4227 4.517084 31.55762 -2.458615
2012-04-12 07:03:07 51°13.636 2°56.021 16.4236 4.517084 31.557065 -2.458615
2012-04-12 07:03:12 51°13.636 2°56.021 16.4232 4.517084 31.55762 -2.458615
2012-04-12 07:03:17 51°13.635 2°56.021 16.4216 4.51698 31.55681 -2.458615
2012-04-12 07:03:23 51°13.636 2°56.021 16.4222 4.51698 31.55681 -2.458615
2012-04-12 07:03:27 51°13.636 2°56.021 16.4227 4.51698 31.55681 -2.458615
2012-04-12 07:03:32 51°13.635 2°56.021 16.4233 4.51698 31.55681 -2.458615
2012-04-12 07:03:37 51°13.635 2°56.021 16.4231 4.51698 31.55681 -2.458615
2012-04-12 07:03:43 51°13.635 2°56.021 16.4213 4.51698 31.55681 -2.458615
2012-04-12 07:03:48 51°13.635 2°56.021 16.4209 4.51698 31.55681 -2.458615
2012-04-12 07:03:52 51°13.636 2°56.021 16.419 4.51698 31.557364 -2.458615
2012-04-12 07:03:57 51°13.635 2°56.02 16.4186 4.51698 31.557364 -2.458615
2012-04-12 07:04:02 51°13.636 2°56.02 16.4204 4.516877 31.556554 -2.458615
2012-04-12 07:04:08 51°13.636 2°56.02 16.4209 4.516877 31.556554 -2.458615
2012-04-12 07:04:13 51°13.636 2°56.02 16.4206 4.516877 31.556554 -2.458615
2012-04-12 07:04:17 51°13.636 2°56.02 16.4193 4.516877 31.556554 -2.458615
2012-04-12 07:04:22 51°13.636 2°56.02 16.4203 4.516877 31.557109 -2.458615
2012-04-12 07:04:27 51°13.635 2°56.021 16.4176 4.516877 31.556554 -2.458615
2012-04-12 07:04:33 51°13.635 2°56.021 16.4212 4.516877 31.556554 -2.458615
2012-04-12 07:04:38 51°13.635 2°56.02 16.4215 4.516877 31.557109 -2.458615
2012-04-12 07:04:42 51°13.635 2°56.02 16.4222 4.516773 31.556299 -2.458615
2012-04-12 07:04:47 51°13.636 2°56.02 16.42 4.516773 31.556299 -2.458615
2012-04-12 07:04:52 51°13.635 2°56.02 16.4177 4.516773 31.556299 -2.458615
2012-04-12 07:04:57 51°13.635 2°56.02 16.4164 4.516773 31.556853 -2.458615
2012-04-12 07:05:03 51°13.635 2°56.02 16.4147 4.516773 31.556853 -2.458615
2012-04-12 07:05:07 51°13.635 2°56.02 16.4162 4.516773 31.556853 -2.458615
2012-04-12 07:05:12 51°13.635 2°56.02 16.4163 4.516669 31.556043 -2.458615
2012-04-12 07:05:17 51°13.635 2°56.019 16.4186 4.516773 31.556853 -2.458615
2012-04-12 07:05:23 51°13.636 2°56.019 16.4195 4.516773 31.556853 -2.458615
2012-04-12 07:05:28 51°13.636 2°56.02 16.421 4.516773 31.556853 -2.458615
2012-04-12 07:05:32 51°13.636 2°56.02 16.4225 4.516669 31.556043 -2.458615
2012-04-12 07:05:38 51°13.636 2°56.02 16.424 4.516669 31.556043 -2.458615
2012-04-12 07:05:43 51°13.636 2°56.02 16.4258 4.516669 31.556598 -2.458615
2012-04-12 07:05:48 51°13.636 2°56.02 16.4237 4.516669 31.556598 -2.458615
2012-04-12 07:05:52 51°13.636 2°56.02 16.4238 4.516669 31.556598 -2.458615
2012-04-12 07:05:57 51°13.636 2°56.02 16.4237 4.516669 31.556598 -2.458615
2012-04-12 07:06:02 51°13.636 2°56.02 16.4214 4.516565 31.556342 -2.458615
2012-04-12 07:06:07 51°13.636 2°56.02 16.4208 4.516565 31.555787 -2.458615
2012-04-12 07:06:12 51°13.636 2°56.02 16.4225 4.516565 31.556342 -2.458615
2012-04-12 07:06:17 51°13.636 2°56.02 16.4239 4.516565 31.555787 -2.458615
2012-04-12 07:06:22 51°13.636 2°56.02 16.4262 4.516462 31.556087 -2.458615
2012-04-12 07:06:28 51°13.636 2°56.019 16.4276 4.516565 31.556897 -2.458615
2012-04-12 07:06:33 51°13.636 2°56.02 16.4281 4.516565 31.556897 -2.458615
2012-04-12 07:06:37 51°13.636 2°56.02 16.4279 4.516565 31.556897 -2.458615
2012-04-12 07:06:42 51°13.636 2°56.02 16.4286 4.516462 31.556087 -2.458615
2012-04-12 07:06:48 51°13.636 2°56.02 16.4288 4.516462 31.556641 -2.458615
2012-04-12 07:06:53 51°13.636 2°56.02 16.4302 4.516462 31.556641 -2.458615
2012-04-12 07:06:57 51°13.635 2°56.019 16.4304 4.516462 31.556641 -2.458615
2012-04-12 07:07:03 51°13.636 2°56.02 16.4316 4.516462 31.556641 -2.458615
2012-04-12 07:07:08 51°13.636 2°56.02 16.4332 4.516462 31.556641 -2.458615
2012-04-12 07:07:13 51°13.636 2°56.02 16.4356 4.516462 31.556641 -2.458615
2012-04-12 07:07:17 51°13.636 2°56.02 16.4371 4.516462 31.556641 -2.458615
2012-04-12 07:07:22 51°13.636 2°56.02 16.4357 4.516358 31.556386 -2.458615
2012-04-12 07:07:27 51°13.636 2°56.02 16.4364 4.516358 31.556386 -2.458615
2012-04-12 07:07:32 51°13.636 2°56.02 16.4391 4.516358 31.556386 -2.458615
2012-04-12 07:07:38 51°13.636 2°56.02 16.4403 4.516358 31.556386 -2.458615
2012-04-12 07:07:42 51°13.636 2°56.02 16.4397 4.516254 31.555575 -2.458615
2012-04-12 07:07:48 51°13.636 2°56.02 16.4402 4.516358 31.556386 -2.458615
2012-04-12 07:07:52 51°13.636 2°56.02 16.4415 4.516254 31.55613 -2.458615
2012-04-12 07:07:58 51°13.636 2°56.02 16.4424 4.516254 31.55613 -2.458615
2012-04-12 07:08:02 51°13.636 2°56.02 16.4439 4.516254 31.55613 -2.458615
2012-04-12 07:08:07 51°13.636 2°56.02 16.4447 4.516254 31.55613 -2.458615
2012-04-12 07:08:12 51°13.636 2°56.02 16.4421 4.516254 31.55613 -2.458615
2012-04-12 07:08:17 51°13.636 2°56.02 16.4418 4.516151 31.555875 -2.458615
2012-04-12 07:08:23 51°13.636 2°56.02 16.4417 4.516254 31.556685 -2.458615
2012-04-12 07:08:27 51°13.636 2°56.02 16.4426 4.516151 31.555875 -2.458615
2012-04-12 07:08:32 51°13.636 2°56.02 16.4421 4.516151 31.555875 -2.458615
2012-04-12 07:08:37 51°13.636 2°56.02 16.4405 4.516151 31.556429 -2.458615
2012-04-12 07:08:43 51°13.636 2°56.02 16.4399 4.516151 31.556429 -2.458615
2012-04-12 07:08:48 51°13.636 2°56.02 16.4407 4.516047 31.555619 -2.458615
2012-04-12 07:08:52 51°13.636 2°56.02 16.4399 4.516151 31.556984 -2.458615
2012-04-12 07:08:57 51°13.636 2°56.02 16.4413 4.516151 31.556984 -2.458615
2012-04-12 07:09:03 51°13.636 2°56.02 16.4425 4.516047 31.555619 -2.458615
2012-04-12 07:09:08 51°13.636 2°56.02 16.4422 4.516047 31.556174 -2.458615
2012-04-12 07:09:13 51°13.636 2°56.02 16.4415 4.516047 31.556729 -2.458615
2012-04-12 07:09:17 51°13.636 2°56.02 16.4417 4.515943 31.555363 -2.458615
2012-04-12 07:09:22 51°13.636 2°56.02 16.4409 4.515943 31.555918 -2.458615
2012-04-12 07:09:27 51°13.636 2°56.02 16.4404 4.515943 31.555918 -2.458615
2012-04-12 07:09:32 51°13.636 2°56.02 16.4391 4.515943 31.555918 -2.458615
2012-04-12 07:09:37 51°13.636 2°56.02 16.4415 4.515943 31.555918 -2.458615
2012-04-12 07:09:42 51°13.636 2°56.02 16.4433 4.515943 31.556473 -2.458615
2012-04-12 07:09:47 51°13.636 2°56.02 16.4439 4.515943 31.556473 -2.458615
2012-04-12 07:09:53 51°13.636 2°56.02 16.4433 4.515839 31.555663 -2.458615
2012-04-12 07:09:58 51°13.636 2°56.02 16.4411 4.515839 31.555663 -2.458615
2012-04-12 07:10:02 51°13.636 2°56.02 16.4396 4.515839 31.555663 -2.458615
2012-04-12 07:10:08 51°13.636 2°56.02 16.4399 4.515839 31.556217 -2.458615
2012-04-12 07:10:13 51°13.636 2°56.02 16.4406 4.515839 31.556217 -2.458615
2012-04-12 07:10:18 51°13.636 2°56.02 16.4385 4.515839 31.556217 -2.458615
2012-04-12 07:10:22 51°13.636 2°56.02 16.4407 4.515736 31.555407 -2.458615
2012-04-12 07:10:28 51°13.636 2°56.02 16.4407 4.515736 31.555407 -2.458615
2012-04-12 07:10:33 51°13.636 2°56.02 16.4394 4.515736 31.555962 -2.458615
2012-04-12 07:10:38 51°13.636 2°56.02 16.4433 4.515736 31.555962 -2.458615
2012-04-12 07:10:42 51°13.636 2°56.02 16.4448 4.515736 31.555962 -2.458615
2012-04-12 07:10:48 51°13.636 2°56.019 16.4458 4.515736 31.555962 -2.458615
2012-04-12 07:10:52 51°13.636 2°56.019 16.447 4.515736 31.556517 -2.458615
2012-04-12 07:10:57 51°13.636 2°56.019 16.4489 4.515736 31.556517 -2.458615
2012-04-12 07:11:02 51°13.636 2°56.019 16.4478 4.515632 31.555706 -2.458615
2012-04-12 07:11:07 51°13.636 2°56.019 16.448 4.515632 31.555706 -2.458615
2012-04-12 07:11:12 51°13.636 2°56.019 16.4488 4.515632 31.555706 -2.458615
2012-04-12 07:11:18 51°13.636 2°56.019 16.4476 4.515632 31.556261 -2.458615
2012-04-12 07:11:23 51°13.636 2°56.019 16.4492 4.515528 31.555451 -2.458615
2012-04-12 07:11:27 51°13.636 2°56.019 16.451 4.515528 31.555451 -2.458615
2012-04-12 07:11:33 51°13.636 2°56.019 16.4492 4.515528 31.555451 -2.458615
2012-04-12 07:11:37 51°13.636 2°56.019 16.4498 4.515528 31.556006 -2.458615
2012-04-12 07:11:43 51°13.636 2°56.019 16.4471 4.515528 31.556006 -2.458615
2012-04-12 07:11:48 51°13.636 2°56.019 16.4461 4.515424 31.555195 -2.458615
2012-04-12 07:11:52 51°13.636 2°56.019 16.4467 4.515424 31.55575 -2.458615
2012-04-12 07:11:58 51°13.636 2°56.019 16.4467 4.515424 31.55575 -2.458615
2012-04-12 07:12:03 51°13.636 2°56.019 16.4478 4.515424 31.55575 -2.458615
2012-04-12 07:12:07 51°13.636 2°56.019 16.4496 4.515424 31.55575 -2.458615
2012-04-12 07:12:12 51°13.636 2°56.019 16.4499 4.515321 31.555494 -2.458615
2012-04-12 07:12:17 51°13.636 2°56.019 16.448 4.515321 31.555494 -2.458615
2012-04-12 07:12:22 51°13.636 2°56.019 16.4462 4.515321 31.555494 -2.458615
2012-04-12 07:12:27 51°13.636 2°56.019 16.4442 4.515321 31.555494 -2.458615
2012-04-12 07:12:32 51°13.636 2°56.019 16.443 4.515217 31.554684 -2.458615
2012-04-12 07:12:38 51°13.636 2°56.019 16.4435 4.515321 31.556049 -2.458615
2012-04-12 07:12:42 51°13.636 2°56.019 16.4455 4.515217 31.555239 -2.458615
2012-04-12 07:12:48 51°13.636 2°56.019 16.4472 4.515217 31.555239 -2.458615
2012-04-12 07:12:53 51°13.636 2°56.019 16.4479 4.515217 31.555239 -2.458615
2012-04-12 07:12:58 51°13.636 2°56.019 16.4476 4.515217 31.555239 -2.458615
2012-04-12 07:13:02 51°13.636 2°56.019 16.4482 4.515217 31.555794 -2.458615
2012-04-12 07:13:08 51°13.636 2°56.019 16.4493 4.515217 31.555794 -2.458615
2012-04-12 07:13:13 51°13.636 2°56.019 16.4501 4.515113 31.554983 -2.458615
2012-04-12 07:13:18 51°13.637 2°56.019 16.4509 4.515113 31.555538 -2.458615
2012-04-12 07:13:22 51°13.637 2°56.019 16.4511 4.515113 31.555538 -2.458615
2012-04-12 07:13:28 51°13.638 2°56.019 16.4518 4.51501 31.554728 -2.458615
2012-04-12 07:13:33 51°13.638 2°56.019 16.4524 4.51501 31.554728 -2.458615
2012-04-12 07:13:38 51°13.638 2°56.019 16.454 4.51501 31.555283 -2.458615
2012-04-12 07:13:42 51°13.638 2°56.018 16.4555 4.51501 31.555283 -2.458615
2012-04-12 07:13:47 51°13.638 2°56.019 16.4552 4.51501 31.555283 -2.458615
2012-04-12 07:13:53 51°13.638 2°56.019 16.4579 4.51501 31.555837 -2.458615
2012-04-12 07:13:58 51°13.638 2°56.019 16.4555 4.514906 31.555027 -2.458615
2012-04-12 07:14:02 51°13.638 2°56.018 16.4584 4.514906 31.555027 -2.458615
2012-04-12 07:14:07 51°13.638 2°56.018 16.469 4.514698 31.553406 -2.458615
2012-04-12 07:14:12 51°13.638 2°56.018 16.443 4.514802 31.554771 -2.458615
2012-04-12 07:14:18 51°13.638 2°56.017 16.4626 4.51501 31.557502 -2.458615
2012-04-12 07:14:22 51°13.638 2°56.017 16.4653 4.514906 31.557802 -2.458615
2012-04-12 07:14:27 51°13.638 2°56.017 16.4659 4.514906 31.557802 -2.458615
2012-04-12 07:14:32 51°13.638 2°56.018 16.4652 4.514802 31.557546 -2.458615
2012-04-12 07:14:38 51°13.638 2°56.018 16.4622 4.514802 31.557546 -2.458615
2012-04-12 07:14:42 51°13.638 2°56.018 16.4666 4.514802 31.556991 -2.458615
2012-04-12 07:14:47 51°13.638 2°56.018 16.464 4.514802 31.555326 -2.458615
2012-04-12 07:14:52 51°13.638 2°56.018 16.4724 4.514906 31.556137 -2.458615
2012-04-12 07:14:57 51°13.638 2°56.018 16.4655 4.514906 31.556137 -2.458615
2012-04-12 07:15:02 51°13.638 2°56.018 16.4657 4.514906 31.555582 -2.458615
2012-04-12 07:15:08 51°13.638 2°56.018 16.4662 4.514802 31.555326 -2.458615
2012-04-12 07:15:12 51°13.638 2°56.018 16.4669 4.514802 31.555881 -2.458615
2012-04-12 07:15:17 51°13.637 2°56.018 16.4678 4.514802 31.557546 -2.458615
2012-04-12 07:15:22 51°13.638 2°56.018 16.4679 4.514698 31.557291 -2.458615
2012-04-12 07:15:28 51°13.637 2°56.018 16.4681 4.514595 31.557035 -2.458615
2012-04-12 07:15:33 51°13.637 2°56.018 16.4681 4.514595 31.557035 -2.458615
2012-04-12 07:15:37 51°13.637 2°56.019 16.4683 4.514595 31.557035 -2.458615
2012-04-12 07:15:42 51°13.637 2°56.019 16.4693 4.514491 31.556225 -2.458615
2012-04-12 07:15:47 51°13.638 2°56.019 16.47 4.514491 31.55567 -2.458615
2012-04-12 07:15:53 51°13.638 2°56.019 16.4705 4.514491 31.555115 -2.458615
2012-04-12 07:15:58 51°13.638 2°56.019 16.4702 4.514491 31.555115 -2.458615
2012-04-12 07:16:02 51°13.637 2°56.019 16.4712 4.514387 31.554304 -2.458615
2012-04-12 07:16:07 51°13.637 2°56.019 16.472 4.514387 31.554859 -2.458615
2012-04-12 07:16:13 51°13.637 2°56.019 16.473 4.514283 31.554048 -2.458615
2012-04-12 07:16:18 51°13.637 2°56.019 16.4734 4.514283 31.554603 -2.458615
2012-04-12 07:16:22 51°13.637 2°56.019 16.472 4.51418 31.553793 -2.458615
2012-04-12 07:16:27 51°13.637 2°56.019 16.4739 4.51418 31.553793 -2.458615
2012-04-12 07:16:32 51°13.636 2°56.019 16.4745 4.51418 31.554348 -2.458615
2012-04-12 07:16:38 51°13.636 2°56.019 16.475 4.514076 31.553537 -2.458615
2012-04-12 07:16:42 51°13.636 2°56.019 16.4756 4.514076 31.553537 -2.458615
2012-04-12 07:16:47 51°13.636 2°56.019 16.4771 4.514076 31.554092 -2.458615
2012-04-12 07:16:52 51°13.636 2°56.019 16.4764 4.514076 31.553537 -2.458615
2012-04-12 07:16:57 51°13.636 2°56.019 16.4777 4.514076 31.553537 -2.458615
2012-04-12 07:17:02 51°13.636 2°56.019 16.4779 4.513972 31.553281 -2.458615
2012-04-12 07:17:08 51°13.635 2°56.019 16.4778 4.513972 31.553281 -2.458615
2012-04-12 07:17:12 51°13.635 2°56.019 16.4722 4.513972 31.553281 -2.458615
2012-04-12 07:17:17 51°13.635 2°56.018 16.4404 4.514076 31.554092 -2.458615
2012-04-12 07:17:22 51°13.635 2°56.018 16.4212 4.514076 31.554092 -2.458615
2012-04-12 07:17:27 51°13.635 2°56.017 16.4092 4.513869 31.552471 -2.458615
2012-04-12 07:17:33 51°13.636 2°56.015 16.4189 4.513869 31.552471 -2.458615
2012-04-12 07:17:37 51°13.636 2°56.013 16.2796 4.513972 31.553837 -2.458615
2012-04-12 07:17:42 51°13.637 2°56.011 16.3402 4.51335 31.548973 -2.458615
2012-04-12 07:17:48 51°13.637 2°56.007 16.3718 4.513454 31.550338 -2.458615
2012-04-12 07:17:53 51°13.638 2°56.004 16.4013 4.513661 31.552515 -2.458615
2012-04-12 07:17:57 51°13.638 2°56.001 16.4363 4.513661 31.552515 -2.458615
2012-04-12 07:18:02 51°13.639 2°55.996 16.4417 4.513557 31.552259 -2.458615
2012-04-12 07:18:07 51°13.639 2°55.992 16.433 4.513454 31.551448 -2.458615
2012-04-12 07:18:13 51°13.64 2°55.986 16.4262 4.51335 31.551193 -2.458615
2012-04-12 07:18:18 51°13.641 2°55.981 16.4639 4.51335 31.551193 -2.458615
2012-04-12 07:18:22 51°13.643 2°55.977 16.4211 4.513246 31.550937 -2.458615
2012-04-12 07:18:27 51°13.644 2°55.971 16.4234 4.513246 31.550937 -2.458615
2012-04-12 07:18:33 51°13.646 2°55.964 16.4709 4.513454 31.552558 -2.458615
2012-04-12 07:18:38 51°13.647 2°55.958 16.4504 4.513454 31.552558 -2.458615
2012-04-12 07:18:42 51°13.648 2°55.953 16.4302 4.513454 31.552558 -2.458615
2012-04-12 07:18:47 51°13.65 2°55.947 16.4468 4.513246 31.550937 -2.458615
2012-04-12 07:18:52 51°13.651 2°55.94 16.4481 4.51335 31.551748 -2.458615
2012-04-12 07:18:58 51°13.653 2°55.932 16.4713 4.513142 31.550681 -2.458615
2012-04-12 07:19:02 51°13.655 2°55.926 16.468 4.513142 31.550681 -2.458615
2012-04-12 07:19:07 51°13.657 2°55.92 16.4417 4.513454 31.553113 -2.458615
2012-04-12 07:19:12 51°13.659 2°55.912 16.4648 4.513454 31.553669 -2.458615
2012-04-12 07:19:17 51°13.66 2°55.905 16.4827 4.51335 31.552858 -2.458615
2012-04-12 07:19:22 51°13.663 2°55.898 16.4591 4.513246 31.552602 -2.458615
2012-04-12 07:19:28 51°13.665 2°55.889 16.4626 4.513246 31.552047 -2.458615
2012-04-12 07:19:32 51°13.668 2°55.883 16.4438 4.513246 31.552047 -2.458615
2012-04-12 07:19:37 51°13.67 2°55.875 16.4338 4.51335 31.553413 -2.458615
2012-04-12 07:19:42 51°13.673 2°55.868 16.4517 4.513142 31.551791 -2.458615
2012-04-12 07:19:48 51°13.676 2°55.858 16.461 4.513039 31.550981 -2.458615
2012-04-12 07:19:53 51°13.68 2°55.85 16.4603 4.513142 31.552347 -2.458615
2012-04-12 07:19:57 51°13.682 2°55.844 16.4669 4.513142 31.552347 -2.458615
2012-04-12 07:20:02 51°13.686 2°55.835 16.4565 4.513142 31.552902 -2.458615
2012-04-12 07:20:08 51°13.69 2°55.826 16.4429 4.513142 31.552347 -2.458615
2012-04-12 07:20:13 51°13.693 2°55.818 16.4561 4.513142 31.552902 -2.458615
2012-04-12 07:20:17 51°13.696 2°55.811 16.4606 4.512935 31.55128 -2.458615
2012-04-12 07:20:22 51°13.7 2°55.803 16.4547 4.512935 31.55128 -2.458615
2012-04-12 07:20:27 51°13.704 2°55.795 16.462 4.512935 31.55128 -2.458615
2012-04-12 07:20:33 51°13.709 2°55.785 16.4612 4.512935 31.551835 -2.458615
2012-04-12 07:20:38 51°13.713 2°55.777 16.4642 4.512935 31.551835 -2.458615
2012-04-12 07:20:42 51°13.716 2°55.771 16.4691 4.512831 31.551025 -2.458615
2012-04-12 07:20:47 51°13.721 2°55.763 16.474 4.512624 31.549958 -2.458615
2012-04-12 07:20:52 51°13.726 2°55.755 16.4623 4.512935 31.55239 -2.458615
2012-04-12 07:20:58 51°13.731 2°55.746 16.4655 4.512728 31.550769 -2.458615
2012-04-12 07:21:02 51°13.735 2°55.739 16.4609 4.512728 31.550769 -2.458615
2012-04-12 07:21:07 51°13.74 2°55.732 16.4723 4.512935 31.55239 -2.458615
2012-04-12 07:21:12 51°13.744 2°55.724 16.4789 4.512624 31.550513 -2.458615
2012-04-12 07:21:18 51°13.75 2°55.715 16.4807 4.512728 31.551879 -2.458615
2012-04-12 07:21:22 51°13.753 2°55.71 16.4763 4.512831 31.55269 -2.458615
2012-04-12 07:21:27 51°13.758 2°55.702 16.4672 4.512831 31.55269 -2.458615
2012-04-12 07:21:32 51°13.763 2°55.695 16.4665 4.512831 31.55269 -2.458615
2012-04-12 07:21:37 51°13.768 2°55.688 16.4766 4.512624 31.551068 -2.458615
2012-04-12 07:21:42 51°13.773 2°55.682 16.4742 4.512624 31.551624 -2.458615
2012-04-12 07:21:48 51°13.779 2°55.674 16.4727 4.512831 31.55269 -2.458615
2012-04-12 07:21:52 51°13.783 2°55.669 16.4773 4.512624 31.551624 -2.458615
2012-04-12 07:21:57 51°13.789 2°55.664 16.472 4.512624 31.551624 -2.458615
2012-04-12 07:22:02 51°13.794 2°55.658 16.4697 4.512624 31.551624 -2.458615
2012-04-12 07:22:08 51°13.801 2°55.652 16.4727 4.512313 31.549746 -2.458615
2012-04-12 07:22:13 51°13.807 2°55.647 16.4797 4.512624 31.552179 -2.458615
2012-04-12 07:22:17 51°13.811 2°55.643 16.4758 4.51252 31.551368 -2.458615
2012-04-12 07:22:22 51°13.817 2°55.639 16.4719 4.512416 31.551112 -2.458615
2012-04-12 07:22:27 51°13.823 2°55.634 16.4811 4.512416 31.551112 -2.458615
2012-04-12 07:22:33 51°13.831 2°55.63 16.472 4.512624 31.552734 -2.458615
2012-04-12 07:22:38 51°13.837 2°55.626 16.4719 4.51252 31.551923 -2.458615
2012-04-12 07:22:42 51°13.842 2°55.624 16.4842 4.512313 31.550301 -2.458615
2012-04-12 07:22:47 51°13.849 2°55.621 16.4867 4.512416 31.551112 -2.458615
2012-04-12 07:22:53 51°13.857 2°55.618 16.4853 4.512313 31.550857 -2.458615
2012-04-12 07:22:58 51°13.863 2°55.616 16.4831 4.512313 31.550857 -2.458615
2012-04-12 07:23:02 51°13.869 2°55.614 16.4841 4.512313 31.550857 -2.458615
2012-04-12 07:23:07 51°13.876 2°55.612 16.48 4.512209 31.550601 -2.458615
2012-04-12 07:23:12 51°13.883 2°55.61 16.4852 4.512209 31.550601 -2.458615
2012-04-12 07:23:18 51°13.89 2°55.609 16.5096 4.511898 31.548168 -2.458615
2012-04-12 07:23:22 51°13.895 2°55.608 16.5449 4.51169 31.547657 -2.458615
2012-04-12 07:23:27 51°13.902 2°55.608 16.4936 4.51169 31.547657 -2.458615
2012-04-12 07:23:32 51°13.908 2°55.608 16.5131 4.512209 31.551711 -2.458615
2012-04-12 07:23:38 51°13.915 2°55.608 16.5002 4.512105 31.5509 -2.458615
2012-04-12 07:23:42 51°13.919 2°55.609 16.4861 4.511794 31.549578 -2.458615
2012-04-12 07:23:48 51°13.926 2°55.611 16.5073 4.512105 31.551456 -2.458615
2012-04-12 07:23:52 51°13.93 2°55.612 16.4659 4.512416 31.554444 -2.458615
2012-04-12 07:23:57 51°13.935 2°55.614 16.4887 4.512416 31.554444 -2.458615
2012-04-12 07:24:02 51°13.94 2°55.616 16.4652 4.511898 31.550389 -2.458615
2012-04-12 07:24:07 51°13.944 2°55.618 16.4645 4.512105 31.552011 -2.458615
2012-04-12 07:24:13 51°13.95 2°55.621 16.5064 4.511898 31.550944 -2.458615
2012-04-12 07:24:17 51°13.953 2°55.623 16.4837 4.51169 31.549878 -2.458615
2012-04-12 07:24:22 51°13.956 2°55.626 16.4813 4.511898 31.5515 -2.458615
2012-04-12 07:24:28 51°13.961 2°55.63 16.4721 4.511898 31.552055 -2.458615
2012-04-12 07:24:33 51°13.964 2°55.633 16.4844 4.511898 31.552055 -2.458615
2012-04-12 07:24:37 51°13.966 2°55.635 16.4773 4.511587 31.549622 -2.458615
2012-04-12 07:24:42 51°13.969 2°55.638 16.4959 4.51169 31.550433 -2.458615
2012-04-12 07:24:47 51°13.972 2°55.641 16.4934 4.511587 31.549622 -2.458615
2012-04-12 07:24:53 51°13.975 2°55.644 16.4988 4.51169 31.550433 -2.458615
2012-04-12 07:24:58 51°13.977 2°55.647 16.4982 4.511587 31.549622 -2.458615
2012-04-12 07:25:02 51°13.978 2°55.649 16.5307 4.511587 31.549622 -2.458615
2012-04-12 07:25:07 51°13.979 2°55.65 16.5481 4.511379 31.548555 -2.458615
2012-04-12 07:25:13 51°13.98 2°55.65 16.532 4.51169 31.550988 -2.458615
2012-04-12 07:25:18 51°13.981 2°55.649 16.4904 4.512002 31.552866 -2.458615
2012-04-12 07:25:22 51°13.981 2°55.647 16.4142 4.51169 31.550433 -2.458615
2012-04-12 07:25:27 51°13.981 2°55.645 16.3492 4.51169 31.550433 -2.458615
2012-04-12 07:25:32 51°13.981 2°55.642 16.318 4.51252 31.55581 -2.458615
2012-04-12 07:25:38 51°13.981 2°55.638 16.0535 4.512209 31.553933 -2.458615
2012-04-12 07:25:42 51°13.982 2°55.634 16.0463 4.512002 31.552311 -2.458615
2012-04-12 07:25:47 51°13.983 2°55.629 15.9232 4.511379 31.548555 -2.458615
2012-04-12 07:25:52 51°13.984 2°55.624 16.2035 4.509823 31.539167 -2.458615
2012-04-12 07:25:57 51°13.985 2°55.619 16.2529 4.509823 31.539167 -2.458615
2012-04-12 07:26:02 51°13.988 2°55.613 16.3154 4.510549 31.54651 -2.458615
2012-04-12 07:26:07 51°13.99 2°55.606 16.3341 4.510653 31.548987 -2.458615
2012-04-12 07:26:12 51°13.993 2°55.6 16.3537 4.510446 31.54792 -2.458615
2012-04-12 07:26:17 51°13.996 2°55.593 16.3822 4.510757 31.550353 -2.458615
2012-04-12 07:26:22 51°14 2°55.586 16.3755 4.510964 31.55142 -2.458615
2012-04-12 07:26:27 51°14.004 2°55.578 16.3828 4.511068 31.551676 -2.458615
2012-04-12 07:26:32 51°14.009 2°55.569 16.3839 4.511068 31.551676 -2.458615
2012-04-12 07:26:37 51°14.014 2°55.561 16.3837 4.510964 31.550309 -2.458615
2012-04-12 07:26:42 51°14.02 2°55.552 16.3795 4.511068 31.55001 -2.458615
2012-04-12 07:26:48 51°14.028 2°55.541 16.3434 4.511275 31.551076 -2.458615
2012-04-12 07:26:53 51°14.035 2°55.531 16.294 4.511068 31.548899 -2.458615
2012-04-12 07:26:58 51°14.043 2°55.521 16.2933 4.511068 31.548899 -2.458615
2012-04-12 07:27:02 51°14.049 2°55.513 16.3206 4.511068 31.549454 -2.458615
2012-04-12 07:27:07 51°14.058 2°55.503 16.2517 4.511587 31.552954 -2.458615
2012-04-12 07:27:12 51°14.067 2°55.492 16.2301 4.510964 31.548088 -2.458615
2012-04-12 07:27:17 51°14.076 2°55.482 16.2525 4.511483 31.552698 -2.458615
2012-04-12 07:27:22 51°14.086 2°55.471 16.1906 4.511794 31.554576 -2.458615
2012-04-12 07:27:27 51°14.097 2°55.46 16.1447 4.511794 31.554576 -2.458615
2012-04-12 07:27:32 51°14.106 2°55.45 16.1521 4.511794 31.553465 -2.458615
2012-04-12 07:27:38 51°14.12 2°55.437 16.1733 4.509927 31.539978 -2.458615
2012-04-12 07:27:42 51°14.128 2°55.429 16.1833 4.511068 31.55001 -2.458615
2012-04-12 07:27:47 51°14.139 2°55.418 16.1402 4.510757 31.547021 -2.458615
2012-04-12 07:27:52 51°14.15 2°55.408 16.1673 4.511379 31.551887 -2.458615
2012-04-12 07:27:58 51°14.164 2°55.395 16.1187 4.510653 31.54621 -2.458615
2012-04-12 07:28:02 51°14.173 2°55.386 16.1707 4.510653 31.54621 -2.458615
2012-04-12 07:28:07 51°14.185 2°55.375 16.1513 4.510757 31.547021 -2.458615
2012-04-12 07:28:12 51°14.196 2°55.365 16.1766 4.511275 31.551076 -2.458615
2012-04-12 07:28:17 51°14.208 2°55.354 16.058 4.510757 31.547021 -2.458615
2012-04-12 07:28:22 51°14.22 2°55.343 16.1707 4.510549 31.545954 -2.458615
2012-04-12 07:28:27 51°14.232 2°55.332 16.1286 4.511068 31.55112 -2.458615
2012-04-12 07:28:32 51°14.244 2°55.321 16.14 4.511068 31.55112 -2.458615
2012-04-12 07:28:37 51°14.256 2°55.31 16.1559 4.510342 31.545998 -2.458615
2012-04-12 07:28:42 51°14.269 2°55.299 16.2021 4.510861 31.551165 -2.458615
2012-04-12 07:28:47 51°14.281 2°55.287 16.2091 4.510446 31.549031 -2.458615
2012-04-12 07:28:52 51°14.293 2°55.276 16.2146 4.510757 31.551464 -2.458615
2012-04-12 07:28:57 51°14.306 2°55.264 16.1433 4.510757 31.551464 -2.458615
2012-04-12 07:29:02 51°14.319 2°55.253 16.1303 4.510964 31.552531 -2.458615
2012-04-12 07:29:07 51°14.331 2°55.241 16.094 4.510446 31.54792 -2.458615
2012-04-12 07:29:12 51°14.344 2°55.23 16.1828 4.510134 31.546042 -2.458615
2012-04-12 07:29:17 51°14.357 2°55.218 16.1562 4.510549 31.549287 -2.458615
2012-04-12 07:29:22 51°14.37 2°55.207 16.1496 4.510964 31.552531 -2.458615
2012-04-12 07:29:27 51°14.384 2°55.196 16.1979 4.510964 31.552531 -2.458615
2012-04-12 07:29:32 51°14.397 2°55.184 16.2427 4.509927 31.545531 -2.458615
2012-04-12 07:29:38 51°14.413 2°55.171 16.2284 4.510238 31.54852 -2.458615
2012-04-12 07:29:42 51°14.424 2°55.162 16.2035 4.511379 31.558554 -2.458615
2012-04-12 07:29:47 51°14.438 2°55.151 16.1849 4.510653 31.552875 -2.458615
2012-04-12 07:29:52 51°14.451 2°55.14 16.2833 4.509719 31.546685 -2.458615
2012-04-12 07:29:57 51°14.465 2°55.129 16.2805 4.510446 31.55292 -2.458615
2012-04-12 07:30:02 51°14.478 2°55.118 16.2353 4.510446 31.55292 -2.458615
2012-04-12 07:30:06 51°14.489 2°55.108 16.2093 4.511276 31.557743 -2.458615
2012-04-12 07:30:11 51°14.503 2°55.096 16.2345 4.510238 31.549075 -2.458615
2012-04-12 07:30:17 51°14.52 2°55.082 16.3438 4.510031 31.548564 -2.458615
2012-04-12 07:30:21 51°14.531 2°55.072 16.3329 4.511172 31.557487 -2.458615
2012-04-12 07:30:26 51°14.544 2°55.058 16.1503 4.510653 31.552875 -2.458615
2012-04-12 07:30:31 51°14.558 2°55.043 16.181 4.510653 31.552875 -2.458615
2012-04-12 07:30:36 51°14.571 2°55.028 16.2207 4.510653 31.553431 -2.458615
2012-04-12 07:30:41 51°14.585 2°55.013 16.1841 4.511379 31.559109 -2.458615
2012-04-12 07:30:46 51°14.599 2°54.997 16.0983 4.510134 31.549375 -2.458615
2012-04-12 07:30:50 51°14.61 2°54.984 16.1888 4.510134 31.552153 -2.458615
2012-04-12 07:30:55 51°14.624 2°54.968 16.0831 4.510134 31.552153 -2.458615
2012-04-12 07:31:00 51°14.637 2°54.951 16.0667 4.510238 31.552408 -2.458615
2012-04-12 07:31:05 51°14.651 2°54.934 16.0199 4.509305 31.545107 -2.458615
2012-04-12 07:31:10 51°14.665 2°54.918 15.9813 4.510031 31.55023 -2.458615
2012-04-12 07:31:14 51°14.676 2°54.904 16.0743 4.509408 31.545918 -2.458615
2012-04-12 07:31:19 51°14.69 2°54.887 16.1552 4.509305 31.546774 -2.458615
2012-04-12 07:31:24 51°14.704 2°54.87 16.1179 4.511276 31.561077 -2.458615
2012-04-12 07:31:29 51°14.717 2°54.853 16.0733 4.511276 31.561077 -2.458615
2012-04-12 07:31:34 51°14.731 2°54.836 16.1595 4.509305 31.547329 -2.458615
2012-04-12 07:31:38 51°14.743 2°54.822 16.0468 4.510861 31.560055 -2.458615
2012-04-12 07:31:44 51°14.759 2°54.801 16.1193 4.508682 31.544684 -2.458615
2012-04-12 07:31:49 51°14.774 2°54.785 16.1484 4.509097 31.550707 -2.458615
2012-04-12 07:31:54 51°14.788 2°54.768 16.1126 4.509201 31.550963 -2.458615
2012-04-12 07:31:59 51°14.802 2°54.752 16.1172 4.509201 31.550963 -2.458615
2012-04-12 07:32:04 51°14.816 2°54.735 16.229 4.509927 31.555531 -2.458615
2012-04-12 07:32:09 51°14.83 2°54.717 16.1762 4.510031 31.555231 -2.458615
2012-04-12 07:32:14 51°14.844 2°54.7 16.1543 4.510135 31.553264 -2.458615
2012-04-12 07:32:18 51°14.855 2°54.685 16.1392 4.509305 31.547329 -2.458615
2012-04-12 07:32:24 51°14.871 2°54.663 16.1709 4.509305 31.547329 -2.458615
2012-04-12 07:32:29 51°14.885 2°54.645 16.0667 4.510653 31.556765 -2.458615
2012-04-12 07:32:34 51°14.898 2°54.627 16.0525 4.509927 31.551641 -2.458615
2012-04-12 07:32:39 51°14.911 2°54.608 16.0106 4.50972 31.550019 -2.458615
2012-04-12 07:32:44 51°14.924 2°54.589 16.123 4.50889 31.545751 -2.458615
2012-04-12 07:32:49 51°14.938 2°54.571 16.0594 4.509512 31.551174 -2.458615
2012-04-12 07:32:54 51°14.951 2°54.553 16.0102 4.509512 31.551174 -2.458615
2012-04-12 07:32:59 51°14.964 2°54.534 16.1369 4.508371 31.543361 -2.458615
2012-04-12 07:33:04 51°14.978 2°54.517 16.1174 4.509927 31.557755 -2.458615
2012-04-12 07:33:09 51°14.992 2°54.498 16.0431 4.508993 31.548784 -2.458615
2012-04-12 07:33:14 51°15.006 2°54.481 16.0632 4.507852 31.539859 -2.458615
2012-04-12 07:33:18 51°15.016 2°54.467 16.1053 4.510135 31.55771 -2.458615
2012-04-12 07:33:24 51°15.033 2°54.446 16.0336 4.509201 31.551519 -2.458615
2012-04-12 07:33:29 51°15.046 2°54.429 16.1172 4.509201 31.551519 -2.458615
2012-04-12 07:33:34 51°15.06 2°54.411 16.1028 4.509408 31.554253 -2.458615
2012-04-12 07:33:38 51°15.071 2°54.398 16.1146 4.50889 31.552419 -2.458615
2012-04-12 07:33:43 51°15.085 2°54.381 16.0845 4.509201 31.555965 -2.458615
2012-04-12 07:33:49 51°15.101 2°54.36 16.0588 4.50889 31.552419 -2.458615
2012-04-12 07:33:54 51°15.115 2°54.344 16.1145 4.508164 31.548962 -2.458615
2012-04-12 07:33:58 51°15.126 2°54.331 16.131 4.508164 31.548962 -2.458615
2012-04-12 07:34:03 51°15.14 2°54.315 16.1324 4.509409 31.557588 -2.458615
2012-04-12 07:34:09 51°15.157 2°54.295 16.127 4.509305 31.555665 -2.458615
2012-04-12 07:34:14 51°15.171 2°54.279 16.1381 4.50889 31.552419 -2.458615
2012-04-12 07:34:18 51°15.182 2°54.266 16.1392 4.508786 31.550496 -2.458615
2012-04-12 07:34:24 51°15.198 2°54.246 16.1478 4.508786 31.550496 -2.458615
2012-04-12 07:34:29 51°15.212 2°54.229 16.0882 4.508786 31.550496 -2.458615
2012-04-12 07:34:34 51°15.225 2°54.212 16.0266 4.50972 31.556687 -2.458615
2012-04-12 07:34:38 51°15.236 2°54.198 15.9868 4.50806 31.543704 -2.458615
2012-04-12 07:34:44 51°15.253 2°54.179 16.0068 4.507541 31.54187 -2.458615
2012-04-12 07:34:48 51°15.264 2°54.166 16.0102 4.50723 31.541102 -2.458615
2012-04-12 07:34:53 51°15.277 2°54.15 16.0947 4.50723 31.541102 -2.458615
2012-04-12 07:34:58 51°15.292 2°54.135 16.1137 4.507645 31.546016 -2.458615
2012-04-12 07:35:03 51°15.305 2°54.12 16.1131 4.508786 31.555499 -2.458615
2012-04-12 07:35:08 51°15.319 2°54.105 16.0972 4.508371 31.551141 -2.458615
2012-04-12 07:35:13 51°15.333 2°54.09 16.1291 4.507956 31.549006 -2.458615
2012-04-12 07:35:18 51°15.348 2°54.075 16.104 4.508579 31.553876 -2.458615
2012-04-12 07:35:23 51°15.362 2°54.059 16.1177 4.508682 31.554131 -2.458615
2012-04-12 07:35:29 51°15.378 2°54.04 16.1057 4.508682 31.554131 -2.458615
2012-04-12 07:35:34 51°15.392 2°54.025 16.1342 4.507023 31.543925 -2.458615
2012-04-12 07:35:38 51°15.403 2°54.012 16.1276 4.509201 31.56097 -2.458615
2012-04-12 07:35:44 51°15.419 2°53.993 16.1072 4.508267 31.552553 -2.458615
2012-04-12 07:35:49 51°15.433 2°53.977 16.0951 4.507023 31.543925 -2.458615
2012-04-12 07:35:53 51°15.444 2°53.965 16.088 4.507023 31.543925 -2.458615
2012-04-12 07:35:58 51°15.457 2°53.949 16.0203 4.508994 31.55879 -2.458615
2012-04-12 07:36:04 51°15.473 2°53.93 16.1042 4.508267 31.552553 -2.458615
2012-04-12 07:36:09 51°15.487 2°53.914 16.0611 4.507438 31.546616 -2.458615
2012-04-12 07:36:14 51°15.501 2°53.899 16.0857 4.507645 31.548239 -2.458615
2012-04-12 07:36:18 51°15.513 2°53.886 16.0917 4.507334 31.54636 -2.458615
2012-04-12 07:36:23 51°15.526 2°53.871 16.1046 4.507334 31.54636 -2.458615
2012-04-12 07:36:29 51°15.543 2°53.853 16.1004 4.507334 31.546916 -2.458615
2012-04-12 07:36:34 51°15.557 2°53.837 16.1477 4.506608 31.544014 -2.458615
2012-04-12 07:36:38 51°15.568 2°53.825 16.1236 4.508475 31.558068 -2.458615
2012-04-12 07:36:42 51°15.579 2°53.812 16.0746 4.507749 31.55183 -2.458615
2012-04-12 07:36:48 51°15.595 2°53.793 16.0569 4.507334 31.548028 -2.458615
2012-04-12 07:36:53 51°15.608 2°53.777 16.0399 4.507956 31.552898 -2.458615
2012-04-12 07:36:59 51°15.624 2°53.759 16.0605 4.507956 31.552898 -2.458615
2012-04-12 07:37:04 51°15.638 2°53.743 16.0813 4.506089 31.5394 -2.458615
2012-04-12 07:37:09 51°15.651 2°53.729 16.1611 4.50723 31.549996 -2.458615
2012-04-12 07:37:15 51°15.667 2°53.71 16.1021 4.507541 31.550763 -2.458615
2012-04-12 07:37:19 51°15.677 2°53.699 16.1551 4.5064 31.542946 -2.458615
2012-04-12 07:37:24 51°15.69 2°53.684 16.1735 4.506712 31.545937 -2.458615
2012-04-12 07:37:29 51°15.702 2°53.669 16.1751 4.506712 31.545937 -2.458615
2012-04-12 07:37:34 51°15.714 2°53.653 16.1682 4.507126 31.54974 -2.458615
2012-04-12 07:37:39 51°15.726 2°53.638 16.1671 4.507334 31.551364 -2.458615
2012-04-12 07:37:44 51°15.738 2°53.623 16.1148 4.50723 31.549996 -2.458615
2012-04-12 07:37:49 51°15.749 2°53.609 16.1378 4.506608 31.545682 -2.458615
2012-04-12 07:37:54 51°15.76 2°53.595 16.1521 4.506608 31.545682 -2.458615
2012-04-12 07:37:59 51°15.771 2°53.582 16.1736 4.505882 31.540555 -2.458615
2012-04-12 07:38:04 51°15.781 2°53.569 16.1406 4.5064 31.545726 -2.458615
2012-04-12 07:38:09 51°15.791 2°53.558 16.1534 4.5064 31.546838 -2.458615
2012-04-12 07:38:14 51°15.801 2°53.547 16.179 4.506193 31.546883 -2.458615
2012-04-12 07:38:19 51°15.81 2°53.536 16.1855 4.505882 31.545559 -2.458615
2012-04-12 07:38:24 51°15.819 2°53.526 16.1878 4.505882 31.545559 -2.458615
2012-04-12 07:38:29 51°15.827 2°53.516 16.2109 4.505882 31.546115 -2.458615
2012-04-12 07:38:35 51°15.837 2°53.505 16.205 4.506297 31.550475 -2.458615
2012-04-12 07:38:39 51°15.843 2°53.498 16.1878 4.506919 31.55479 -2.458615
2012-04-12 07:38:44 51°15.85 2°53.489 16.2068 4.505778 31.546972 -2.458615
2012-04-12 07:38:49 51°15.857 2°53.481 16.2212 4.506297 31.549919 -2.458615
2012-04-12 07:38:54 51°15.863 2°53.473 16.2046 4.505571 31.544236 -2.458615
2012-04-12 07:38:59 51°15.87 2°53.466 16.1963 4.505571 31.544236 -2.458615
2012-04-12 07:39:04 51°15.877 2°53.458 16.1821 4.5064 31.550731 -2.458615
2012-04-12 07:39:09 51°15.883 2°53.451 16.1912 4.505882 31.546671 -2.458615
2012-04-12 07:39:15 51°15.889 2°53.443 16.1852 4.505571 31.544236 -2.458615
2012-04-12 07:39:19 51°15.894 2°53.438 16.1821 4.505985 31.547483 -2.458615
2012-04-12 07:39:23 51°15.899 2°53.434 16.1992 4.505985 31.547483 -2.458615
2012-04-12 07:39:29 51°15.906 2°53.427 16.2126 4.505985 31.547483 -2.458615
2012-04-12 07:39:34 51°15.911 2°53.421 16.2015 4.505156 31.5421 -2.458615
2012-04-12 07:39:39 51°15.916 2°53.416 16.1918 4.505674 31.546716 -2.458615
2012-04-12 07:39:44 51°15.922 2°53.411 16.2028 4.505778 31.547528 -2.458615
2012-04-12 07:39:49 51°15.927 2°53.406 16.204 4.505778 31.54864 -2.458615
2012-04-12 07:39:54 51°15.932 2°53.402 16.1992 4.505778 31.54864 -2.458615
2012-04-12 07:39:59 51°15.937 2°53.398 16.2183 4.505778 31.549197 -2.458615
2012-04-12 07:40:04 51°15.942 2°53.395 16.2152 4.505052 31.544069 -2.458615
2012-04-12 07:40:09 51°15.948 2°53.391 16.208 4.505363 31.547617 -2.458615
2012-04-12 07:40:14 51°15.953 2°53.388 16.2037 4.505259 31.546249 -2.458615
2012-04-12 07:40:19 51°15.958 2°53.385 16.2127 4.504741 31.542746 -2.458615
2012-04-12 07:40:23 51°15.962 2°53.383 16.2123 4.504948 31.544369 -2.458615
2012-04-12 07:40:29 51°15.968 2°53.38 16.1936 4.504948 31.544369 -2.458615
2012-04-12 07:40:34 51°15.973 2°53.377 16.2019 4.505363 31.547617 -2.458615
2012-04-12 07:40:39 51°15.978 2°53.375 16.2504 4.504844 31.544114 -2.458615
2012-04-12 07:40:44 51°15.984 2°53.372 16.2084 4.505778 31.550865 -2.458615
2012-04-12 07:40:49 51°15.989 2°53.37 16.2025 4.504844 31.544114 -2.458615
2012-04-12 07:40:54 51°15.995 2°53.367 16.2068 4.505363 31.547617 -2.458615
2012-04-12 07:40:59 51°16 2°53.364 16.2345 4.505363 31.547617 -2.458615
2012-04-12 07:41:03 51°16.004 2°53.362 16.1886 4.504844 31.543557 -2.458615
2012-04-12 07:41:09 51°16.012 2°53.358 16.2009 4.505363 31.547617 -2.458615
2012-04-12 07:41:14 51°16.017 2°53.356 16.1787 4.504948 31.545482 -2.458615
2012-04-12 07:41:19 51°16.023 2°53.353 16.187 4.504637 31.543602 -2.458615
2012-04-12 07:41:23 51°16.028 2°53.35 16.1735 4.504637 31.543602 -2.458615
2012-04-12 07:41:29 51°16.035 2°53.346 16.191 4.505052 31.547406 -2.458615
2012-04-12 07:41:34 51°16.042 2°53.343 16.2039 4.50443 31.54309 -2.458615
2012-04-12 07:41:39 51°16.048 2°53.34 16.1961 4.504637 31.545271 -2.458615
2012-04-12 07:41:44 51°16.054 2°53.336 16.1841 4.504533 31.544459 -2.458615
2012-04-12 07:41:49 51°16.061 2°53.332 16.1927 4.504948 31.547707 -2.458615
2012-04-12 07:41:54 51°16.068 2°53.328 16.201 4.504948 31.547707 -2.458615
2012-04-12 07:41:59 51°16.075 2°53.324 16.176 4.504118 31.541767 -2.458615
2012-04-12 07:42:04 51°16.082 2°53.32 16.185 4.504741 31.547195 -2.458615
2012-04-12 07:42:09 51°16.088 2°53.316 16.1888 4.50443 31.545315 -2.458615
2012-04-12 07:42:14 51°16.095 2°53.312 16.2042 4.504741 31.548308 -2.458615
2012-04-12 07:42:19 51°16.102 2°53.307 16.1962 4.504222 31.544804 -2.458615
2012-04-12 07:42:23 51°16.107 2°53.304 16.1736 4.504326 31.54506 -2.458615
2012-04-12 07:42:30 51°16.116 2°53.297 16.1921 4.504326 31.54506 -2.458615
2012-04-12 07:42:34 51°16.122 2°53.294 16.1909 4.503911 31.541811 -2.458615
2012-04-12 07:42:39 51°16.129 2°53.289 16.1792 4.504326 31.54506 -2.458615
2012-04-12 07:42:43 51°16.135 2°53.285 16.1771 4.503703 31.540187 -2.458615
2012-04-12 07:42:48 51°16.141 2°53.279 16.1895 4.504637 31.54694 -2.458615
2012-04-12 07:42:53 51°16.148 2°53.274 16.1556 4.504637 31.54694 -2.458615
2012-04-12 07:43:00 51°16.157 2°53.267 16.2019 4.50443 31.545872 -2.458615
2012-04-12 07:43:04 51°16.163 2°53.262 16.2027 4.503392 31.538863 -2.458615
2012-04-12 07:43:08 51°16.168 2°53.258 16.1791 4.504637 31.549165 -2.458615
2012-04-12 07:43:14 51°16.176 2°53.252 16.1923 4.504015 31.544849 -2.458615
2012-04-12 07:43:19 51°16.183 2°53.246 16.1552 4.503081 31.538096 -2.458615
2012-04-12 07:43:24 51°16.19 2°53.24 16.1356 4.503081 31.538096 -2.458615
2012-04-12 07:43:28 51°16.195 2°53.236 16.1598 4.504326 31.548398 -2.458615
2012-04-12 07:43:35 51°16.205 2°53.228 16.1867 4.503496 31.543013 -2.458615
2012-04-12 07:43:39 51°16.211 2°53.224 16.1873 4.504015 31.548187 -2.458615
2012-04-12 07:43:44 51°16.218 2°53.218 16.1518 4.503807 31.547119 -2.458615
2012-04-12 07:43:48 51°16.223 2°53.214 16.1603 4.503807 31.548232 -2.458615
2012-04-12 07:43:54 51°16.231 2°53.208 16.1832 4.503392 31.544427 -2.458615
2012-04-12 07:43:59 51°16.238 2°53.203 16.1621 4.503392 31.544427 -2.458615
2012-04-12 07:44:04 51°16.245 2°53.198 16.1409 4.503185 31.543359 -2.458615
2012-04-12 07:44:08 51°16.251 2°53.194 16.1607 4.502874 31.540922 -2.458615
2012-04-12 07:44:14 51°16.26 2°53.188 16.1241 4.502874 31.540365 -2.458615
2012-04-12 07:44:19 51°16.266 2°53.183 16.1335 4.5036 31.546608 -2.458615
2012-04-12 07:44:24 51°16.273 2°53.178 16.1689 4.502977 31.541734 -2.458615
2012-04-12 07:44:28 51°16.279 2°53.174 16.1783 4.502977 31.541734 -2.458615
2012-04-12 07:44:34 51°16.287 2°53.169 16.1798 4.503185 31.543915 -2.458615
2012-04-12 07:44:39 51°16.294 2°53.164 16.1662 4.503185 31.544472 -2.458615
2012-04-12 07:44:44 51°16.301 2°53.159 16.1696 4.503185 31.543915 -2.458615
2012-04-12 07:44:49 51°16.308 2°53.155 16.1642 4.50277 31.540666 -2.458615
2012-04-12 07:44:54 51°16.315 2°53.151 16.1808 4.50277 31.540666 -2.458615
2012-04-12 07:44:59 51°16.321 2°53.146 16.169 4.502459 31.538229 -2.458615
2012-04-12 07:45:04 51°16.329 2°53.142 16.1556 4.502977 31.542291 -2.458615
2012-04-12 07:45:09 51°16.336 2°53.138 16.1613 4.503289 31.544727 -2.458615
2012-04-12 07:45:14 51°16.342 2°53.134 16.1535 4.502355 31.53853 -2.458615
2012-04-12 07:45:19 51°16.349 2°53.13 16.1604 4.502874 31.544261 -2.458615
2012-04-12 07:45:24 51°16.356 2°53.126 16.1886 4.502874 31.544261 -2.458615
2012-04-12 07:45:29 51°16.363 2°53.122 16.1933 4.502251 31.541056 -2.458615
2012-04-12 07:45:34 51°16.37 2°53.118 16.1606 4.502044 31.540544 -2.458615
2012-04-12 07:45:39 51°16.377 2°53.114 16.1858 4.502044 31.541101 -2.458615
2012-04-12 07:45:44 51°16.384 2°53.11 16.1618 4.502459 31.545464 -2.458615
2012-04-12 07:45:48 51°16.39 2°53.107 16.1647 4.502251 31.544395 -2.458615
2012-04-12 07:45:54 51°16.399 2°53.101 16.201 4.502563 31.54572 -2.458615
2012-04-12 07:45:59 51°16.407 2°53.097 16.1971 4.502563 31.54572 -2.458615
2012-04-12 07:46:04 51°16.415 2°53.092 16.1774 4.50194 31.541402 -2.458615
2012-04-12 07:46:09 51°16.422 2°53.087 16.1506 4.502459 31.54435 -2.458615
2012-04-12 07:46:14 51°16.43 2°53.082 16.1339 4.501836 31.53892 -2.458615
2012-04-12 07:46:19 51°16.438 2°53.077 16.1393 4.502251 31.542726 -2.458615
2012-04-12 07:46:24 51°16.446 2°53.071 16.1581 4.502148 31.543026 -2.458615
2012-04-12 07:46:29 51°16.454 2°53.066 16.1461 4.502148 31.543026 -2.458615
2012-04-12 07:46:34 51°16.463 2°53.061 16.1186 4.502251 31.543839 -2.458615
2012-04-12 07:46:39 51°16.471 2°53.056 16.1581 4.501733 31.54089 -2.458615
2012-04-12 07:46:44 51°16.479 2°53.051 16.1334 4.50194 31.543071 -2.458615
2012-04-12 07:46:48 51°16.486 2°53.046 16.1225 4.501629 31.540634 -2.458615
2012-04-12 07:46:54 51°16.496 2°53.04 16.1499 4.501629 31.540634 -2.458615
2012-04-12 07:46:59 51°16.504 2°53.034 16.1649 4.50194 31.543628 -2.458615
2012-04-12 07:47:04 51°16.513 2°53.029 16.143 4.501214 31.538497 -2.458615
2012-04-12 07:47:09 51°16.522 2°53.023 16.1409 4.501629 31.541747 -2.458615
2012-04-12 07:47:14 51°16.53 2°53.018 16.1601 4.50194 31.544185 -2.458615
2012-04-12 07:47:19 51°16.539 2°53.012 16.1539 4.50194 31.544741 -2.458615
2012-04-12 07:47:24 51°16.547 2°53.007 16.1719 4.50194 31.544741 -2.458615
2012-04-12 07:47:29 51°16.556 2°53 16.1529 4.501214 31.539611 -2.458615
2012-04-12 07:47:34 51°16.564 2°52.994 16.1656 4.501422 31.541792 -2.458615
2012-04-12 07:47:39 51°16.572 2°52.988 16.176 4.501318 31.540423 -2.458615
2012-04-12 07:47:44 51°16.581 2°52.982 16.177 4.501733 31.543673 -2.458615
2012-04-12 07:47:49 51°16.59 2°52.975 16.1459 4.500592 31.535849 -2.458615
2012-04-12 07:47:54 51°16.598 2°52.969 16.1464 4.50194 31.545855 -2.458615
2012-04-12 07:47:59 51°16.606 2°52.962 16.1506 4.50194 31.545855 -2.458615
2012-04-12 07:48:04 51°16.615 2°52.956 16.1617 4.500903 31.538843 -2.458615
2012-04-12 07:48:08 51°16.621 2°52.951 16.1292 4.501318 31.543206 -2.458615
2012-04-12 07:48:14 51°16.631 2°52.943 16.1299 4.500592 31.538075 -2.458615
2012-04-12 07:48:19 51°16.639 2°52.937 16.146 4.501318 31.544877 -2.458615
2012-04-12 07:48:24 51°16.647 2°52.93 16.1555 4.501318 31.544877 -2.458615
2012-04-12 07:48:28 51°16.653 2°52.925 16.1399 4.501007 31.542439 -2.458615
2012-04-12 07:48:34 51°16.662 2°52.917 16.1661 4.500799 31.541371 -2.458615
2012-04-12 07:48:39 51°16.669 2°52.91 16.17 4.500799 31.541927 -2.458615
2012-04-12 07:48:44 51°16.677 2°52.904 16.1683 4.501422 31.546803 -2.458615
2012-04-12 07:48:49 51°16.684 2°52.897 16.1601 4.501007 31.544109 -2.458615
2012-04-12 07:48:54 51°16.691 2°52.891 16.1633 4.501007 31.544109 -2.458615
2012-04-12 07:48:59 51°16.698 2°52.884 16.1575 4.500384 31.540347 -2.458615
2012-04-12 07:49:04 51°16.706 2°52.877 16.1569 4.500488 31.54116 -2.458615
2012-04-12 07:49:09 51°16.713 2°52.87 16.1407 4.500799 31.543598 -2.458615
2012-04-12 07:49:14 51°16.72 2°52.863 16.1459 4.500177 31.539279 -2.458615
2012-04-12 07:49:19 51°16.727 2°52.857 16.1542 4.500488 31.541717 -2.458615
2012-04-12 07:49:24 51°16.735 2°52.85 16.1843 4.500177 31.539835 -2.458615
2012-04-12 07:49:29 51°16.741 2°52.844 16.1461 4.500177 31.539835 -2.458615
2012-04-12 07:49:34 51°16.748 2°52.837 16.1674 4.500592 31.5442 -2.458615
2012-04-12 07:49:39 51°16.754 2°52.831 16.1506 4.500488 31.54283 -2.458615
2012-04-12 07:49:44 51°16.762 2°52.824 16.1666 4.500073 31.540693 -2.458615
2012-04-12 07:49:49 51°16.769 2°52.818 16.1631 4.500384 31.542574 -2.458615
2012-04-12 07:49:54 51°16.776 2°52.812 16.1636 4.500177 31.541506 -2.458615
2012-04-12 07:49:59 51°16.783 2°52.806 16.1474 4.500177 31.541506 -2.458615
2012-04-12 07:50:04 51°16.79 2°52.799 16.1675 4.500177 31.542063 -2.458615
2012-04-12 07:50:09 51°16.797 2°52.793 16.1721 4.500488 31.544501 -2.458615
2012-04-12 07:50:14 51°16.804 2°52.787 16.1687 4.500073 31.54125 -2.458615
2012-04-12 07:50:19 51°16.811 2°52.781 16.1765 4.500073 31.541807 -2.458615
2012-04-12 07:50:24 51°16.818 2°52.774 16.1602 4.500073 31.541807 -2.458615
2012-04-12 07:50:28 51°16.823 2°52.769 16.116 4.499658 31.539113 -2.458615
2012-04-12 07:50:34 51°16.832 2°52.762 16.0913 4.500696 31.547797 -2.458615
2012-04-12 07:50:39 51°16.839 2°52.755 16.1655 4.499243 31.538089 -2.458615
2012-04-12 07:50:44 51°16.846 2°52.749 16.1427 4.500073 31.544035 -2.458615
2012-04-12 07:50:49 51°16.853 2°52.743 16.1389 4.499762 31.541039 -2.458615
2012-04-12 07:50:54 51°16.86 2°52.737 16.1495 4.499762 31.541039 -2.458615
2012-04-12 07:50:59 51°16.868 2°52.732 16.1452 4.498932 31.534537 -2.458615
2012-04-12 07:51:04 51°16.875 2°52.726 16.1187 4.499451 31.538601 -2.458615
2012-04-12 07:51:09 51°16.883 2°52.72 16.096 4.499036 31.53535 -2.458615
2012-04-12 07:51:14 51°16.89 2°52.715 16.133 4.498932 31.536208 -2.458615
2012-04-12 07:51:19 51°16.898 2°52.709 16.1416 4.498932 31.537878 -2.458615
2012-04-12 07:51:24 51°16.906 2°52.704 16.1299 4.49914 31.541175 -2.458615
2012-04-12 07:51:28 51°16.912 2°52.7 16.1362 4.49914 31.541175 -2.458615
2012-04-12 07:51:34 51°16.921 2°52.694 16.1402 4.498725 31.537923 -2.458615
2012-04-12 07:51:39 51°16.929 2°52.689 16.1721 4.498932 31.540106 -2.458615
2012-04-12 07:51:44 51°16.937 2°52.684 16.1157 4.49914 31.541732 -2.458615
2012-04-12 07:51:49 51°16.945 2°52.68 16.1095 4.498725 31.53848 -2.458615
2012-04-12 07:51:54 51°16.953 2°52.676 16.1142 4.499555 31.543869 -2.458615
2012-04-12 07:51:59 51°16.96 2°52.671 16.1494 4.499555 31.543869 -2.458615
2012-04-12 07:52:04 51°16.968 2°52.666 16.1473 4.498517 31.535184 -2.458615
2012-04-12 07:52:09 51°16.976 2°52.661 16.1278 4.499036 31.539248 -2.458615
2012-04-12 07:52:14 51°16.984 2°52.656 16.1306 4.498414 31.535485 -2.458615
2012-04-12 07:52:19 51°16.992 2°52.65 16.1559 4.498829 31.539293 -2.458615
2012-04-12 07:52:24 51°17 2°52.645 16.1559 4.498829 31.539293 -2.458615
2012-04-12 07:52:28 51°17.007 2°52.641 16.1383 4.498102 31.53416 -2.458615
2012-04-12 07:52:34 51°17.016 2°52.634 16.1515 4.49831 31.535786 -2.458615
2012-04-12 07:52:39 51°17.024 2°52.629 16.1517 4.498725 31.539594 -2.458615
2012-04-12 07:52:44 51°17.032 2°52.624 16.1424 4.498517 31.537969 -2.458615
2012-04-12 07:52:48 51°17.038 2°52.62 16.1212 4.498621 31.538781 -2.458615
2012-04-12 07:52:54 51°17.048 2°52.613 16.1541 4.498102 31.535831 -2.458615
2012-04-12 07:52:59 51°17.056 2°52.608 16.1073 4.498102 31.535831 -2.458615
2012-04-12 07:53:04 51°17.064 2°52.602 16.1369 4.498829 31.542636 -2.458615
2012-04-12 07:53:08 51°17.07 2°52.598 16.1295 4.497791 31.535063 -2.458615
2012-04-12 07:53:14 51°17.079 2°52.591 16.1281 4.498102 31.537502 -2.458615
2012-04-12 07:53:19 51°17.087 2°52.585 16.1479 4.497999 31.536689 -2.458615
2012-04-12 07:53:24 51°17.095 2°52.579 16.1418 4.497584 31.533437 -2.458615
2012-04-12 07:53:29 51°17.103 2°52.573 16.1373 4.497584 31.533437 -2.458615
2012-04-12 07:53:34 51°17.11 2°52.567 16.1455 4.497687 31.53425 -2.458615
2012-04-12 07:53:39 51°17.118 2°52.561 16.1448 4.497791 31.534506 -2.458615
2012-04-12 07:53:44 51°17.126 2°52.555 16.148 4.498102 31.536945 -2.458615
2012-04-12 07:53:49 51°17.133 2°52.548 16.1618 4.497895 31.535319 -2.458615
2012-04-12 07:53:54 51°17.141 2°52.542 16.1472 4.497065 31.530486 -2.458615
2012-04-12 07:53:59 51°17.149 2°52.536 16.1455 4.497065 31.530486 -2.458615
2012-04-12 07:54:04 51°17.156 2°52.529 16.1625 4.497169 31.532413 -2.458615
2012-04-12 07:54:09 51°17.163 2°52.522 16.1263 4.497999 31.539474 -2.458615
2012-04-12 07:54:14 51°17.171 2°52.516 16.1016 4.497065 31.533271 -2.458615
2012-04-12 07:54:19 51°17.179 2°52.509 16.1508 4.497895 31.54089 -2.458615
2012-04-12 07:54:24 51°17.186 2°52.503 16.1542 4.497895 31.54089 -2.458615
2012-04-12 07:54:28 51°17.192 2°52.497 16.1322 4.496858 31.532202 -2.458615
2012-04-12 07:54:34 51°17.202 2°52.489 16.1173 4.497584 31.536779 -2.458615
2012-04-12 07:54:39 51°17.209 2°52.483 16.105 4.497169 31.533527 -2.458615
2012-04-12 07:54:44 51°17.217 2°52.476 16.107 4.497065 31.532714 -2.458615
2012-04-12 07:54:48 51°17.223 2°52.471 16.107 4.497584 31.537336 -2.458615
2012-04-12 07:54:54 51°17.232 2°52.463 16.1181 4.497584 31.537894 -2.458615
2012-04-12 07:54:59 51°17.24 2°52.456 16.1414 4.497584 31.537894 -2.458615
2012-04-12 07:55:04 51°17.247 2°52.45 16.1179 4.497169 31.535756 -2.458615
2012-04-12 07:55:08 51°17.253 2°52.445 16.0894 4.497895 31.542562 -2.458615
2012-04-12 07:55:14 51°17.263 2°52.437 16.1097 4.496961 31.535801 -2.458615
2012-04-12 07:55:19 51°17.27 2°52.431 16.0981 4.497169 31.53687 -2.458615
2012-04-12 07:55:24 51°17.278 2°52.425 16.1067 4.496858 31.53443 -2.458615
2012-04-12 07:55:29 51°17.286 2°52.42 16.1104 4.496858 31.53443 -2.458615
2012-04-12 07:55:34 51°17.295 2°52.416 16.112 4.49665 31.532804 -2.458615
2012-04-12 07:55:39 51°17.303 2°52.412 16.0917 4.496443 31.531178 -2.458615
2012-04-12 07:55:44 51°17.311 2°52.409 16.0977 4.496028 31.528483 -2.458615
2012-04-12 07:55:49 51°17.319 2°52.406 16.1151 4.496858 31.534988 -2.458615
2012-04-12 07:55:54 51°17.328 2°52.403 16.1362 4.496858 31.534988 -2.458615
2012-04-12 07:55:59 51°17.337 2°52.401 16.1445 4.496754 31.535289 -2.458615
2012-04-12 07:56:04 51°17.345 2°52.398 16.1473 4.496028 31.531268 -2.458615
2012-04-12 07:56:08 51°17.352 2°52.397 16.1274 4.497169 31.539656 -2.458615
2012-04-12 07:56:14 51°17.362 2°52.394 16.1407 4.495924 31.531012 -2.458615
2012-04-12 07:56:19 51°17.371 2°52.392 16.1369 4.49665 31.536705 -2.458615
2012-04-12 07:56:24 51°17.379 2°52.39 16.1456 4.49665 31.536705 -2.458615
2012-04-12 07:56:29 51°17.387 2°52.388 16.1474 4.496339 31.534265 -2.458615
2012-04-12 07:56:34 51°17.396 2°52.385 16.1094 4.496028 31.531268 -2.458615
2012-04-12 07:56:39 51°17.405 2°52.383 16.1134 4.496235 31.53178 -2.458615
2012-04-12 07:56:44 51°17.413 2°52.381 16.1202 4.495717 31.528272 -2.458615
2012-04-12 07:56:48 51°17.42 2°52.38 16.1326 4.496235 31.532337 -2.458615
2012-04-12 07:56:54 51°17.43 2°52.378 16.1194 4.496132 31.532081 -2.458615
2012-04-12 07:56:59 51°17.439 2°52.376 16.1407 4.496132 31.532081 -2.458615
2012-04-12 07:57:04 51°17.448 2°52.374 16.1288 4.496028 31.532383 -2.458615
2012-04-12 07:57:08 51°17.454 2°52.373 16.133 4.496235 31.535123 -2.458615
2012-04-12 07:57:14 51°17.465 2°52.371 16.1086 4.495509 31.530545 -2.458615
2012-04-12 07:57:19 51°17.473 2°52.369 16.1432 4.496339 31.538723 -2.458615
2012-04-12 07:57:24 51°17.482 2°52.367 16.14 4.495509 31.532217 -2.458615
2012-04-12 07:57:29 51°17.49 2°52.366 16.1546 4.495509 31.532217 -2.458615
2012-04-12 07:57:34 51°17.499 2°52.364 16.1483 4.495302 31.530033 -2.458615
2012-04-12 07:57:39 51°17.507 2°52.363 16.1391 4.496443 31.538422 -2.458615
2012-04-12 07:57:44 51°17.516 2°52.361 16.1303 4.495613 31.532473 -2.458615
2012-04-12 07:57:48 51°17.522 2°52.36 16.1512 4.495613 31.531916 -2.458615
2012-04-12 07:57:54 51°17.532 2°52.358 16.1395 4.495613 31.531916 -2.458615
2012-04-12 07:57:59 51°17.541 2°52.357 16.0993 4.495198 31.52922 -2.458615
2012-04-12 07:58:04 51°17.55 2°52.356 16.1135 4.496132 31.536539 -2.458615
2012-04-12 07:58:09 51°17.558 2°52.354 16.1323 4.495406 31.531404 -2.458615
2012-04-12 07:58:14 51°17.567 2°52.353 16.1226 4.495302 31.531705 -2.458615
2012-04-12 07:58:19 51°17.575 2°52.351 16.1395 4.495094 31.530636 -2.458615
2012-04-12 07:58:24 51°17.584 2°52.349 16.135 4.495509 31.534446 -2.458615
2012-04-12 07:58:29 51°17.592 2°52.348 16.1227 4.495509 31.534446 -2.458615
2012-04-12 07:58:34 51°17.601 2°52.346 16.1482 4.495717 31.53663 -2.458615
2012-04-12 07:58:39 51°17.609 2°52.344 16.1211 4.495509 31.535004 -2.458615
2012-04-12 07:58:44 51°17.618 2°52.342 16.1338 4.494783 31.52931 -2.458615
2012-04-12 07:58:49 51°17.626 2°52.341 16.102 4.495198 31.533678 -2.458615
2012-04-12 07:58:54 51°17.635 2°52.339 16.1534 4.495198 31.533678 -2.458615
2012-04-12 07:58:59 51°17.643 2°52.337 16.1281 4.494991 31.533166 -2.458615
2012-04-12 07:59:04 51°17.652 2°52.335 16.1433 4.495094 31.535095 -2.458615
2012-04-12 07:59:09 51°17.66 2°52.334 16.1147 4.495613 31.538604 -2.458615
2012-04-12 07:59:14 51°17.668 2°52.332 16.1168 4.494576 31.531027 -2.458615
2012-04-12 07:59:19 51°17.677 2°52.33 16.1224 4.494887 31.533468 -2.458615
2012-04-12 07:59:24 51°17.685 2°52.328 16.1303 4.494887 31.533468 -2.458615
2012-04-12 07:59:29 51°17.693 2°52.326 16.1354 4.495302 31.536722 -2.458615
2012-04-12 07:59:34 51°17.702 2°52.324 16.1481 4.494368 31.528843 -2.458615
2012-04-12 07:59:39 51°17.71 2°52.323 16.1245 4.494472 31.530771 -2.458615
2012-04-12 07:59:44 51°17.718 2°52.321 16.1099 4.494368 31.531073 -2.458615
2012-04-12 07:59:49 51°17.727 2°52.32 16.1199 4.494576 31.533257 -2.458615
2012-04-12 07:59:54 51°17.735 2°52.318 16.1219 4.494576 31.533257 -2.458615
2012-04-12 07:59:59 51°17.743 2°52.317 16.1458 4.495095 31.537325 -2.458615
2012-04-12 08:00:04 51°17.752 2°52.315 16.1626 4.494265 31.531932 -2.458615
2012-04-12 08:00:08 51°17.759 2°52.314 16.1201 4.494472 31.533559 -2.458615
2012-04-12 08:00:14 51°17.769 2°52.313 16.126 4.493746 31.527864 -2.458615
2012-04-12 08:00:19 51°17.777 2°52.312 16.1414 4.494265 31.531374 -2.458615
2012-04-12 08:00:24 51°17.785 2°52.311 16.1394 4.494161 31.530561 -2.458615
2012-04-12 08:00:29 51°17.794 2°52.311 16.1375 4.494161 31.530561 -2.458615
2012-04-12 08:00:34 51°17.802 2°52.31 16.1461 4.494057 31.52919 -2.458615
2012-04-12 08:00:39 51°17.811 2°52.31 16.1121 4.494368 31.532188 -2.458615
2012-04-12 08:00:44 51°17.819 2°52.309 16.1241 4.493435 31.525981 -2.458615
2012-04-12 08:00:49 51°17.828 2°52.308 16.1512 4.493539 31.528467 -2.458615
2012-04-12 08:00:54 51°17.836 2°52.308 16.1365 4.493539 31.528467 -2.458615
2012-04-12 08:00:59 51°17.844 2°52.308 16.1556 4.494265 31.535277 -2.458615
2012-04-12 08:01:04 51°17.853 2°52.308 16.1358 4.49385 31.53258 -2.458615
2012-04-12 08:01:09 51°17.861 2°52.307 16.1557 4.494057 31.534207 -2.458615
2012-04-12 08:01:14 51°17.87 2°52.307 16.1321 4.493435 31.530441 -2.458615
2012-04-12 08:01:19 51°17.879 2°52.306 16.1216 4.493331 31.530185 -2.458615
2012-04-12 08:01:24 51°17.887 2°52.305 16.1492 4.493331 31.530185 -2.458615
2012-04-12 08:01:28 51°17.894 2°52.305 16.138 4.493954 31.534509 -2.458615
2012-04-12 08:01:34 51°17.904 2°52.304 16.1617 4.493435 31.530441 -2.458615
2012-04-12 08:01:39 51°17.913 2°52.303 16.1515 4.493642 31.532068 -2.458615
2012-04-12 08:01:44 51°17.922 2°52.302 16.1422 4.493539 31.530697 -2.458615
2012-04-12 08:01:48 51°17.928 2°52.301 16.1419 4.493331 31.530185 -2.458615
2012-04-12 08:01:54 51°17.938 2°52.299 16.1505 4.493435 31.530441 -2.458615
2012-04-12 08:01:59 51°17.946 2°52.298 16.1466 4.493435 31.530441 -2.458615
2012-04-12 08:02:04 51°17.955 2°52.296 16.1511 4.493124 31.529115 -2.458615
2012-04-12 08:02:08 51°17.961 2°52.295 16.1254 4.493539 31.532927 -2.458615
2012-04-12 08:02:14 51°17.972 2°52.292 16.1644 4.493227 31.531602 -2.458615
2012-04-12 08:02:19 51°17.98 2°52.29 16.173 4.493331 31.532973 -2.458615
2012-04-12 08:02:24 51°17.989 2°52.289 16.1557 4.492813 31.529462 -2.458615
2012-04-12 08:02:29 51°17.997 2°52.287 16.1624 4.492813 31.529462 -2.458615
2012-04-12 08:02:34 51°18.005 2°52.284 16.1558 4.493331 31.532973 -2.458615
2012-04-12 08:02:39 51°18.014 2°52.282 16.1551 4.493124 31.531346 -2.458615
2012-04-12 08:02:44 51°18.022 2°52.28 16.1642 4.492813 31.528905 -2.458615
2012-04-12 08:02:49 51°18.031 2°52.278 16.1631 4.493539 31.5346 -2.458615
2012-04-12 08:02:54 51°18.039 2°52.276 16.1583 4.493539 31.5346 -2.458615
2012-04-12 08:02:59 51°18.047 2°52.273 16.1501 4.492605 31.528392 -2.458615
2012-04-12 08:03:04 51°18.056 2°52.271 16.1427 4.493124 31.533019 -2.458615
2012-04-12 08:03:09 51°18.064 2°52.269 16.1017 4.493124 31.533576 -2.458615
2012-04-12 08:03:14 51°18.073 2°52.267 16.1485 4.49219 31.527926 -2.458615
2012-04-12 08:03:19 51°18.081 2°52.266 16.1313 4.492709 31.532552 -2.458615
2012-04-12 08:03:24 51°18.089 2°52.264 16.1548 4.492709 31.532552 -2.458615
2012-04-12 08:03:29 51°18.098 2°52.262 16.1274 4.492709 31.532552 -2.458615
2012-04-12 08:03:34 51°18.106 2°52.26 16.1414 4.492294 31.528739 -2.458615
2012-04-12 08:03:39 51°18.115 2°52.257 16.1297 4.49219 31.527926 -2.458615
2012-04-12 08:03:44 51°18.123 2°52.256 16.1459 4.492294 31.529297 -2.458615
2012-04-12 08:03:48 51°18.13 2°52.254 16.1562 4.492605 31.532296 -2.458615
2012-04-12 08:03:54 51°18.14 2°52.252 16.15 4.49219 31.530714 -2.458615
2012-04-12 08:03:59 51°18.149 2°52.25 16.142 4.49219 31.530714 -2.458615
2012-04-12 08:04:04 51°18.158 2°52.249 16.1412 4.49219 31.532388 -2.458615
2012-04-12 08:04:08 51°18.164 2°52.248 16.164 4.491879 31.532178 -2.458615
2012-04-12 08:04:14 51°18.174 2°52.245 16.1447 4.492502 31.537619 -2.458615
2012-04-12 08:04:19 51°18.183 2°52.244 16.1407 4.491672 31.531666 -2.458615
2012-04-12 08:04:24 51°18.191 2°52.242 16.1264 4.49219 31.534062 -2.458615
2012-04-12 08:04:29 51°18.2 2°52.241 16.1307 4.49219 31.534062 -2.458615
2012-04-12 08:04:34 51°18.208 2°52.24 16.145 4.491775 31.52969 -2.458615
2012-04-12 08:04:39 51°18.216 2°52.238 16.164 4.491672 31.527761 -2.458615
2012-04-12 08:04:44 51°18.225 2°52.236 16.1551 4.492398 31.532342 -2.458615
2012-04-12 08:04:49 51°18.234 2°52.235 16.1355 4.491153 31.523134 -2.458615
2012-04-12 08:04:54 51°18.242 2°52.234 16.1164 4.491153 31.523134 -2.458615
2012-04-12 08:04:59 51°18.25 2°52.233 16.1576 4.492087 31.532132 -2.458615
2012-04-12 08:05:04 51°18.259 2°52.231 16.1212 4.49136 31.528108 -2.458615
2012-04-12 08:05:09 51°18.268 2°52.23 16.1431 4.491568 31.531967 -2.458615
2012-04-12 08:05:14 51°18.276 2°52.228 16.1443 4.491568 31.533083 -2.458615
2012-04-12 08:05:19 51°18.285 2°52.227 16.1612 4.491672 31.534455 -2.458615
2012-04-12 08:05:24 51°18.293 2°52.226 16.1148 4.491257 31.531757 -2.458615
2012-04-12 08:05:29 51°18.301 2°52.225 16.1191 4.491257 31.531757 -2.458615
2012-04-12 08:05:34 51°18.31 2°52.224 16.1037 4.491672 31.534455 -2.458615
2012-04-12 08:05:39 51°18.318 2°52.224 16.1373 4.491049 31.529571 -2.458615
2012-04-12 08:05:44 51°18.327 2°52.223 16.1185 4.491257 31.530641 -2.458615
2012-04-12 08:05:48 51°18.334 2°52.222 16.1208 4.491049 31.529571 -2.458615
2012-04-12 08:05:54 51°18.344 2°52.222 16.1422 4.490634 31.526315 -2.458615
2012-04-12 08:05:59 51°18.352 2°52.221 16.1462 4.490634 31.526315 -2.458615
2012-04-12 08:06:04 51°18.361 2°52.221 16.139 4.490634 31.527989 -2.458615
2012-04-12 08:06:08 51°18.368 2°52.22 16.1257 4.491257 31.533431 -2.458615
2012-04-12 08:06:14 51°18.378 2°52.22 16.1161 4.490219 31.526407 -2.458615
2012-04-12 08:06:19 51°18.387 2°52.218 16.1395 4.491049 31.533477 -2.458615
2012-04-12 08:06:24 51°18.395 2°52.217 16.1465 4.491049 31.533477 -2.458615
2012-04-12 08:06:29 51°18.404 2°52.217 16.1545 4.490842 31.531291 -2.458615
2012-04-12 08:06:34 51°18.412 2°52.216 16.1379 4.490738 31.529919 -2.458615
2012-04-12 08:06:39 51°18.421 2°52.215 16.1462 4.490946 31.530989 -2.458615
2012-04-12 08:06:44 51°18.429 2°52.214 16.108 4.490531 31.527733 -2.458615
2012-04-12 08:06:49 51°18.438 2°52.213 16.1151 4.490842 31.530733 -2.458615
2012-04-12 08:06:54 51°18.446 2°52.212 16.146 4.490842 31.530733 -2.458615
2012-04-12 08:06:59 51°18.455 2°52.21 16.1606 4.490116 31.52615 -2.458615
2012-04-12 08:07:04 51°18.463 2°52.21 16.1338 4.490427 31.530825 -2.458615
2012-04-12 08:07:08 51°18.47 2°52.208 16.1568 4.490323 31.530011 -2.458615
2012-04-12 08:07:14 51°18.48 2°52.207 16.14 4.490323 31.531127 -2.458615
2012-04-12 08:07:19 51°18.489 2°52.205 16.171 4.490427 31.531941 -2.458615
2012-04-12 08:07:24 51°18.497 2°52.203 16.1296 4.490012 31.529243 -2.458615
2012-04-12 08:07:29 51°18.506 2°52.202 16.1289 4.490012 31.529243 -2.458615
2012-04-12 08:07:34 51°18.514 2°52.2 16.1503 4.490842 31.53464 -2.458615
2012-04-12 08:07:39 51°18.522 2°52.198 16.1475 4.490012 31.528126 -2.458615
2012-04-12 08:07:44 51°18.531 2°52.196 16.1625 4.489908 31.528428 -2.458615
2012-04-12 08:07:49 51°18.539 2°52.194 16.1705 4.490116 31.529499 -2.458615
2012-04-12 08:07:54 51°18.548 2°52.192 16.1674 4.489493 31.52573 -2.458615
2012-04-12 08:07:59 51°18.556 2°52.19 16.1527 4.489493 31.52573 -2.458615
2012-04-12 08:08:04 51°18.564 2°52.188 16.162 4.489286 31.525217 -2.458615
2012-04-12 08:08:08 51°18.571 2°52.186 16.1483 4.490116 31.532848 -2.458615
2012-04-12 08:08:14 51°18.581 2°52.184 16.1563 4.489701 31.530707 -2.458615
2012-04-12 08:08:19 51°18.59 2°52.181 16.1508 4.489908 31.532335 -2.458615
2012-04-12 08:08:24 51°18.598 2°52.179 16.1536 4.489908 31.532335 -2.458615
2012-04-12 08:08:29 51°18.606 2°52.177 16.1592 4.489286 31.52745 -2.458615
2012-04-12 08:08:34 51°18.615 2°52.175 16.149 4.489286 31.52745 -2.458615
2012-04-12 08:08:39 51°18.623 2°52.173 16.1446 4.489182 31.527194 -2.458615
2012-04-12 08:08:44 51°18.632 2°52.17 16.1415 4.489079 31.526938 -2.458615
2012-04-12 08:08:49 51°18.64 2°52.169 16.1476 4.489286 31.528566 -2.458615
2012-04-12 08:08:54 51°18.648 2°52.167 16.1633 4.489286 31.528566 -2.458615
2012-04-12 08:08:59 51°18.657 2°52.165 16.1559 4.489182 31.52831 -2.458615
2012-04-12 08:09:04 51°18.666 2°52.163 16.1637 4.489494 31.53187 -2.458615
2012-04-12 08:09:08 51°18.673 2°52.161 16.1675 4.489079 31.529729 -2.458615
2012-04-12 08:09:14 51°18.682 2°52.159 16.1657 4.489182 31.530543 -2.458615
2012-04-12 08:09:19 51°18.691 2°52.158 16.1433 4.488353 31.525703 -2.458615
2012-04-12 08:09:24 51°18.699 2°52.156 16.1461 4.489079 31.530845 -2.458615
2012-04-12 08:09:29 51°18.707 2°52.155 16.1556 4.489079 31.530845 -2.458615
2012-04-12 08:09:34 51°18.716 2°52.153 16.1572 4.488664 31.528146 -2.458615
2012-04-12 08:09:39 51°18.724 2°52.152 16.153 4.488353 31.526261 -2.458615
2012-04-12 08:09:44 51°18.733 2°52.15 16.161 4.489079 31.531404 -2.458615
2012-04-12 08:09:49 51°18.742 2°52.149 16.1465 4.488664 31.529263 -2.458615
2012-04-12 08:09:54 51°18.75 2°52.148 16.1337 4.488871 31.53145 -2.458615
2012-04-12 08:09:59 51°18.759 2°52.146 16.1495 4.488871 31.53145 -2.458615